<?xml version="1.0" encoding="UTF-8" standalone="no" ?>
<gpx xmlns="http://www.topografix.com/GPX/1/1" xmlns:xsi="http://www.w3.org/2001/XMLSchema-instance" xsi:schemaLocation="http://www.topografix.com/GPX/1/1 http://www.topografix.com/GPX/1/1/gpx.xsd" version="1.1" creator="VisuGPX - https://www.visugpx.com">
  <metadata>
    <name>64 - PEDESTRE - Montagne du Rey - Louvie Juzon</name>
    <desc><![CDATA[Courte mais physique]]></desc>
  </metadata>
  <wpt lat="43.08169" lon="-0.40174">
    <ele>851.126465</ele>
    <name><![CDATA[001]]></name>
    <desc><![CDATA[02-OCT-14 13:06:10]]></desc>
    <cmt><![CDATA[02-OCT-14 13:06:10]]></cmt>
  </wpt>
  <trk>
    <name><![CDATA[ACTIVE LOG]]></name>
    <trkseg>
      <trkpt lat="43.08647" lon="-0.41865">
        <ele>423.598022</ele>
        <time>2014-10-02T07:19:23Z</time>
      </trkpt>
      <trkpt lat="43.08647" lon="-0.41865">
        <ele>423.598022</ele>
        <time>2014-10-02T07:19:25Z</time>
      </trkpt>
      <trkpt lat="43.08648" lon="-0.41861">
        <ele>423.598022</ele>
        <time>2014-10-02T07:19:41Z</time>
      </trkpt>
      <trkpt lat="43.08653" lon="-0.41842">
        <ele>423.598022</ele>
        <time>2014-10-02T07:19:59Z</time>
      </trkpt>
      <trkpt lat="43.08652" lon="-0.41841">
        <ele>423.598022</ele>
        <time>2014-10-02T07:20:20Z</time>
      </trkpt>
      <trkpt lat="43.08653" lon="-0.41839">
        <ele>423.598022</ele>
        <time>2014-10-02T07:20:25Z</time>
      </trkpt>
      <trkpt lat="43.08655" lon="-0.41834">
        <ele>424.078735</ele>
        <time>2014-10-02T07:20:29Z</time>
      </trkpt>
      <trkpt lat="43.08654" lon="-0.41821">
        <ele>424.078735</ele>
        <time>2014-10-02T07:20:46Z</time>
      </trkpt>
      <trkpt lat="43.08653" lon="-0.41783">
        <ele>424.559448</ele>
        <time>2014-10-02T07:21:06Z</time>
      </trkpt>
      <trkpt lat="43.08654" lon="-0.4177">
        <ele>426.001343</ele>
        <time>2014-10-02T07:21:13Z</time>
      </trkpt>
      <trkpt lat="43.08654" lon="-0.41767">
        <ele>425.520752</ele>
        <time>2014-10-02T07:21:15Z</time>
      </trkpt>
      <trkpt lat="43.0866" lon="-0.4172">
        <ele>427.92395</ele>
        <time>2014-10-02T07:21:41Z</time>
      </trkpt>
      <trkpt lat="43.08659" lon="-0.41689">
        <ele>428.404663</ele>
        <time>2014-10-02T07:22:00Z</time>
      </trkpt>
      <trkpt lat="43.08657" lon="-0.41658">
        <ele>430.327271</ele>
        <time>2014-10-02T07:22:20Z</time>
      </trkpt>
      <trkpt lat="43.08653" lon="-0.4163">
        <ele>433.691895</ele>
        <time>2014-10-02T07:22:38Z</time>
      </trkpt>
      <trkpt lat="43.08652" lon="-0.41627">
        <ele>434.172607</ele>
        <time>2014-10-02T07:22:40Z</time>
      </trkpt>
      <trkpt lat="43.08653" lon="-0.4159">
        <ele>436.095215</ele>
        <time>2014-10-02T07:23:02Z</time>
      </trkpt>
      <trkpt lat="43.08659" lon="-0.4156">
        <ele>438.017822</ele>
        <time>2014-10-02T07:23:21Z</time>
      </trkpt>
      <trkpt lat="43.08688" lon="-0.41541">
        <ele>438.979126</ele>
        <time>2014-10-02T07:23:36Z</time>
      </trkpt>
      <trkpt lat="43.08669" lon="-0.41518">
        <ele>440.421265</ele>
        <time>2014-10-02T07:23:52Z</time>
      </trkpt>
      <trkpt lat="43.08655" lon="-0.41503">
        <ele>441.863159</ele>
        <time>2014-10-02T07:24:10Z</time>
      </trkpt>
      <trkpt lat="43.08656" lon="-0.41492">
        <ele>443.785767</ele>
        <time>2014-10-02T07:24:18Z</time>
      </trkpt>
      <trkpt lat="43.08651" lon="-0.4148">
        <ele>446.669678</ele>
        <time>2014-10-02T07:24:28Z</time>
      </trkpt>
      <trkpt lat="43.08645" lon="-0.41463">
        <ele>450.034424</ele>
        <time>2014-10-02T07:24:43Z</time>
      </trkpt>
    </trkseg>
  </trk>
  <trk>
    <name><![CDATA[ACTIVE LOG 001]]></name>
    <trkseg>
      <trkpt lat="43.08644" lon="-0.41461">
        <ele>449.553711</ele>
        <time>2014-10-02T07:24:46Z</time>
      </trkpt>
      <trkpt lat="43.08644" lon="-0.41461">
        <ele>452.918213</ele>
        <time>2014-10-02T07:25:18Z</time>
      </trkpt>
      <trkpt lat="43.08644" lon="-0.41461">
        <ele>456.282959</ele>
        <time>2014-10-02T07:25:54Z</time>
      </trkpt>
      <trkpt lat="43.08644" lon="-0.41461">
        <ele>456.76355</ele>
        <time>2014-10-02T07:26:02Z</time>
      </trkpt>
      <trkpt lat="43.08541" lon="-0.41392">
        <ele>459.647583</ele>
        <time>2014-10-02T07:26:29Z</time>
      </trkpt>
      <trkpt lat="43.08514" lon="-0.41394">
        <ele>462.531372</ele>
        <time>2014-10-02T07:26:44Z</time>
      </trkpt>
      <trkpt lat="43.08497" lon="-0.41408">
        <ele>463.973389</ele>
        <time>2014-10-02T07:26:59Z</time>
      </trkpt>
      <trkpt lat="43.08482" lon="-0.41419">
        <ele>465.896118</ele>
        <time>2014-10-02T07:27:11Z</time>
      </trkpt>
      <trkpt lat="43.0847" lon="-0.4142">
        <ele>467.818726</ele>
        <time>2014-10-02T07:27:17Z</time>
      </trkpt>
      <trkpt lat="43.08458" lon="-0.41429">
        <ele>469.741333</ele>
        <time>2014-10-02T07:27:32Z</time>
      </trkpt>
      <trkpt lat="43.08449" lon="-0.41434">
        <ele>470.702637</ele>
        <time>2014-10-02T07:27:42Z</time>
      </trkpt>
      <trkpt lat="43.0844" lon="-0.41434">
        <ele>471.66394</ele>
        <time>2014-10-02T07:27:50Z</time>
      </trkpt>
      <trkpt lat="43.08429" lon="-0.41431">
        <ele>471.66394</ele>
        <time>2014-10-02T07:27:59Z</time>
      </trkpt>
      <trkpt lat="43.08399" lon="-0.4142">
        <ele>471.66394</ele>
        <time>2014-10-02T07:28:16Z</time>
      </trkpt>
      <trkpt lat="43.08375" lon="-0.41416">
        <ele>472.625366</ele>
        <time>2014-10-02T07:28:32Z</time>
      </trkpt>
      <trkpt lat="43.08359" lon="-0.41417">
        <ele>471.66394</ele>
        <time>2014-10-02T07:28:47Z</time>
      </trkpt>
      <trkpt lat="43.0835" lon="-0.41413">
        <ele>471.66394</ele>
        <time>2014-10-02T07:28:57Z</time>
      </trkpt>
      <trkpt lat="43.08344" lon="-0.41409">
        <ele>471.18335</ele>
        <time>2014-10-02T07:29:02Z</time>
      </trkpt>
      <trkpt lat="43.08341" lon="-0.41407">
        <ele>472.625366</ele>
        <time>2014-10-02T07:29:04Z</time>
      </trkpt>
      <trkpt lat="43.08324" lon="-0.41389">
        <ele>473.58667</ele>
        <time>2014-10-02T07:29:20Z</time>
      </trkpt>
      <trkpt lat="43.08313" lon="-0.41371">
        <ele>475.509277</ele>
        <time>2014-10-02T07:29:34Z</time>
      </trkpt>
      <trkpt lat="43.08307" lon="-0.41362">
        <ele>477.431885</ele>
        <time>2014-10-02T07:29:43Z</time>
      </trkpt>
      <trkpt lat="43.08302" lon="-0.4135">
        <ele>479.354492</ele>
        <time>2014-10-02T07:29:54Z</time>
      </trkpt>
      <trkpt lat="43.08298" lon="-0.41344">
        <ele>480.796631</ele>
        <time>2014-10-02T07:29:59Z</time>
      </trkpt>
      <trkpt lat="43.0829" lon="-0.4132">
        <ele>482.719238</ele>
        <time>2014-10-02T07:30:17Z</time>
      </trkpt>
      <trkpt lat="43.08288" lon="-0.413">
        <ele>486.08374</ele>
        <time>2014-10-02T07:30:31Z</time>
      </trkpt>
      <trkpt lat="43.08286" lon="-0.41281">
        <ele>488.967773</ele>
        <time>2014-10-02T07:30:45Z</time>
      </trkpt>
      <trkpt lat="43.08276" lon="-0.41277">
        <ele>490.40979</ele>
        <time>2014-10-02T07:30:52Z</time>
      </trkpt>
      <trkpt lat="43.08277" lon="-0.41265">
        <ele>491.851685</ele>
        <time>2014-10-02T07:31:01Z</time>
      </trkpt>
      <trkpt lat="43.08276" lon="-0.4126">
        <ele>493.293579</ele>
        <time>2014-10-02T07:31:05Z</time>
      </trkpt>
      <trkpt lat="43.08276" lon="-0.41253">
        <ele>494.255005</ele>
        <time>2014-10-02T07:31:10Z</time>
      </trkpt>
      <trkpt lat="43.08279" lon="-0.41234">
        <ele>496.177734</ele>
        <time>2014-10-02T07:31:26Z</time>
      </trkpt>
      <trkpt lat="43.0828" lon="-0.41226">
        <ele>499.061523</ele>
        <time>2014-10-02T07:31:34Z</time>
      </trkpt>
      <trkpt lat="43.08285" lon="-0.41211">
        <ele>502.426147</ele>
        <time>2014-10-02T07:31:48Z</time>
      </trkpt>
      <trkpt lat="43.08284" lon="-0.41202">
        <ele>505.310181</ele>
        <time>2014-10-02T07:32:00Z</time>
      </trkpt>
      <trkpt lat="43.08285" lon="-0.41194">
        <ele>505.790894</ele>
        <time>2014-10-02T07:32:08Z</time>
      </trkpt>
      <trkpt lat="43.08276" lon="-0.41185">
        <ele>509.636108</ele>
        <time>2014-10-02T07:32:21Z</time>
      </trkpt>
      <trkpt lat="43.08267" lon="-0.41183">
        <ele>511.558716</ele>
        <time>2014-10-02T07:32:30Z</time>
      </trkpt>
      <trkpt lat="43.08249" lon="-0.41176">
        <ele>514.442627</ele>
        <time>2014-10-02T07:32:48Z</time>
      </trkpt>
      <trkpt lat="43.08251" lon="-0.41162">
        <ele>517.807251</ele>
        <time>2014-10-02T07:33:01Z</time>
      </trkpt>
      <trkpt lat="43.08258" lon="-0.4115">
        <ele>521.171997</ele>
        <time>2014-10-02T07:33:13Z</time>
      </trkpt>
      <trkpt lat="43.08258" lon="-0.41135">
        <ele>523.094604</ele>
        <time>2014-10-02T07:33:26Z</time>
      </trkpt>
      <trkpt lat="43.08253" lon="-0.41126">
        <ele>525.017212</ele>
        <time>2014-10-02T07:33:44Z</time>
      </trkpt>
      <trkpt lat="43.08251" lon="-0.41116">
        <ele>524.536499</ele>
        <time>2014-10-02T07:34:19Z</time>
      </trkpt>
      <trkpt lat="43.0824" lon="-0.41116">
        <ele>526.459106</ele>
        <time>2014-10-02T07:34:33Z</time>
      </trkpt>
      <trkpt lat="43.08239" lon="-0.41114">
        <ele>527.42041</ele>
        <time>2014-10-02T07:34:49Z</time>
      </trkpt>
      <trkpt lat="43.08242" lon="-0.41104">
        <ele>528.862549</ele>
        <time>2014-10-02T07:35:06Z</time>
      </trkpt>
      <trkpt lat="43.08246" lon="-0.41094">
        <ele>531.265747</ele>
        <time>2014-10-02T07:35:14Z</time>
      </trkpt>
      <trkpt lat="43.08232" lon="-0.41083">
        <ele>534.149658</ele>
        <time>2014-10-02T07:35:30Z</time>
      </trkpt>
      <trkpt lat="43.08234" lon="-0.41071">
        <ele>535.591553</ele>
        <time>2014-10-02T07:35:42Z</time>
      </trkpt>
      <trkpt lat="43.08235" lon="-0.41067">
        <ele>536.553101</ele>
        <time>2014-10-02T07:35:46Z</time>
      </trkpt>
      <trkpt lat="43.08235" lon="-0.41061">
        <ele>537.994995</ele>
        <time>2014-10-02T07:35:51Z</time>
      </trkpt>
      <trkpt lat="43.08238" lon="-0.41046">
        <ele>540.398315</ele>
        <time>2014-10-02T07:36:05Z</time>
      </trkpt>
      <trkpt lat="43.08244" lon="-0.41031">
        <ele>542.801514</ele>
        <time>2014-10-02T07:36:19Z</time>
      </trkpt>
      <trkpt lat="43.08251" lon="-0.41026">
        <ele>543.762817</ele>
        <time>2014-10-02T07:36:36Z</time>
      </trkpt>
      <trkpt lat="43.08252" lon="-0.41021">
        <ele>545.204834</ele>
        <time>2014-10-02T07:36:57Z</time>
      </trkpt>
      <trkpt lat="43.08242" lon="-0.41018">
        <ele>548.088867</ele>
        <time>2014-10-02T07:37:15Z</time>
      </trkpt>
      <trkpt lat="43.08231" lon="-0.41011">
        <ele>550.492188</ele>
        <time>2014-10-02T07:37:47Z</time>
      </trkpt>
      <trkpt lat="43.08231" lon="-0.41011">
        <ele>550.972656</ele>
        <time>2014-10-02T07:37:48Z</time>
      </trkpt>
      <trkpt lat="43.08228" lon="-0.40997">
        <ele>554.337402</ele>
        <time>2014-10-02T07:38:04Z</time>
      </trkpt>
      <trkpt lat="43.08227" lon="-0.40993">
        <ele>554.817871</ele>
        <time>2014-10-02T07:38:08Z</time>
      </trkpt>
      <trkpt lat="43.08221" lon="-0.40983">
        <ele>556.740723</ele>
        <time>2014-10-02T07:38:21Z</time>
      </trkpt>
      <trkpt lat="43.08222" lon="-0.40972">
        <ele>559.624756</ele>
        <time>2014-10-02T07:38:34Z</time>
      </trkpt>
      <trkpt lat="43.08224" lon="-0.4096">
        <ele>561.06665</ele>
        <time>2014-10-02T07:38:44Z</time>
      </trkpt>
      <trkpt lat="43.08227" lon="-0.40945">
        <ele>563.950439</ele>
        <time>2014-10-02T07:38:57Z</time>
      </trkpt>
      <trkpt lat="43.08225" lon="-0.40933">
        <ele>566.834473</ele>
        <time>2014-10-02T07:39:09Z</time>
      </trkpt>
      <trkpt lat="43.08224" lon="-0.40922">
        <ele>570.198975</ele>
        <time>2014-10-02T07:39:19Z</time>
      </trkpt>
      <trkpt lat="43.08214" lon="-0.40917">
        <ele>573.083252</ele>
        <time>2014-10-02T07:39:35Z</time>
      </trkpt>
      <trkpt lat="43.08214" lon="-0.40913">
        <ele>574.044434</ele>
        <time>2014-10-02T07:39:39Z</time>
      </trkpt>
      <trkpt lat="43.08214" lon="-0.409">
        <ele>576.928467</ele>
        <time>2014-10-02T07:39:53Z</time>
      </trkpt>
      <trkpt lat="43.08207" lon="-0.40899">
        <ele>578.370361</ele>
        <time>2014-10-02T07:40:06Z</time>
      </trkpt>
      <trkpt lat="43.08208" lon="-0.40894">
        <ele>578.851074</ele>
        <time>2014-10-02T07:40:18Z</time>
      </trkpt>
      <trkpt lat="43.08205" lon="-0.4089">
        <ele>579.331543</ele>
        <time>2014-10-02T07:41:59Z</time>
      </trkpt>
      <trkpt lat="43.08209" lon="-0.409">
        <ele>579.331543</ele>
        <time>2014-10-02T07:42:22Z</time>
      </trkpt>
      <trkpt lat="43.08208" lon="-0.40886">
        <ele>581.734863</ele>
        <time>2014-10-02T07:42:42Z</time>
      </trkpt>
      <trkpt lat="43.08199" lon="-0.40879">
        <ele>584.618896</ele>
        <time>2014-10-02T07:42:54Z</time>
      </trkpt>
      <trkpt lat="43.08192" lon="-0.40872">
        <ele>587.021973</ele>
        <time>2014-10-02T07:43:10Z</time>
      </trkpt>
      <trkpt lat="43.08183" lon="-0.40863">
        <ele>588.945068</ele>
        <time>2014-10-02T07:43:23Z</time>
      </trkpt>
      <trkpt lat="43.08178" lon="-0.4086">
        <ele>591.828857</ele>
        <time>2014-10-02T07:43:33Z</time>
      </trkpt>
      <trkpt lat="43.08189" lon="-0.40855">
        <ele>594.712646</ele>
        <time>2014-10-02T07:43:43Z</time>
      </trkpt>
      <trkpt lat="43.08205" lon="-0.40847">
        <ele>595.674072</ele>
        <time>2014-10-02T07:43:55Z</time>
      </trkpt>
      <trkpt lat="43.08202" lon="-0.40835">
        <ele>598.557861</ele>
        <time>2014-10-02T07:44:07Z</time>
      </trkpt>
      <trkpt lat="43.08213" lon="-0.40821">
        <ele>600.961182</ele>
        <time>2014-10-02T07:44:19Z</time>
      </trkpt>
      <trkpt lat="43.08209" lon="-0.40804">
        <ele>601.922607</ele>
        <time>2014-10-02T07:44:32Z</time>
      </trkpt>
      <trkpt lat="43.08209" lon="-0.40792">
        <ele>602.883789</ele>
        <time>2014-10-02T07:44:43Z</time>
      </trkpt>
      <trkpt lat="43.0821" lon="-0.4078">
        <ele>603.364502</ele>
        <time>2014-10-02T07:44:57Z</time>
      </trkpt>
      <trkpt lat="43.08212" lon="-0.40766">
        <ele>605.287354</ele>
        <time>2014-10-02T07:45:09Z</time>
      </trkpt>
      <trkpt lat="43.08207" lon="-0.40779">
        <ele>606.729248</ele>
        <time>2014-10-02T07:45:33Z</time>
      </trkpt>
      <trkpt lat="43.08213" lon="-0.40783">
        <ele>609.613281</ele>
        <time>2014-10-02T07:45:41Z</time>
      </trkpt>
      <trkpt lat="43.0823" lon="-0.40779">
        <ele>612.016602</ele>
        <time>2014-10-02T07:45:56Z</time>
      </trkpt>
      <trkpt lat="43.08231" lon="-0.40768">
        <ele>614.900391</ele>
        <time>2014-10-02T07:46:09Z</time>
      </trkpt>
      <trkpt lat="43.08221" lon="-0.40753">
        <ele>615.381104</ele>
        <time>2014-10-02T07:46:26Z</time>
      </trkpt>
      <trkpt lat="43.08208" lon="-0.40745">
        <ele>618.264893</ele>
        <time>2014-10-02T07:46:35Z</time>
      </trkpt>
      <trkpt lat="43.082" lon="-0.40737">
        <ele>619.226318</ele>
        <time>2014-10-02T07:46:45Z</time>
      </trkpt>
      <trkpt lat="43.08193" lon="-0.40727">
        <ele>622.110352</ele>
        <time>2014-10-02T07:46:58Z</time>
      </trkpt>
      <trkpt lat="43.08183" lon="-0.40719">
        <ele>623.071777</ele>
        <time>2014-10-02T07:47:08Z</time>
      </trkpt>
      <trkpt lat="43.08186" lon="-0.40711">
        <ele>625.474854</ele>
        <time>2014-10-02T07:47:21Z</time>
      </trkpt>
      <trkpt lat="43.08175" lon="-0.40704">
        <ele>628.8396</ele>
        <time>2014-10-02T07:47:32Z</time>
      </trkpt>
      <trkpt lat="43.08165" lon="-0.40699">
        <ele>631.24292</ele>
        <time>2014-10-02T07:47:45Z</time>
      </trkpt>
      <trkpt lat="43.08169" lon="-0.40698">
        <ele>634.126709</ele>
        <time>2014-10-02T07:47:59Z</time>
      </trkpt>
      <trkpt lat="43.08183" lon="-0.40699">
        <ele>637.010742</ele>
        <time>2014-10-02T07:48:09Z</time>
      </trkpt>
      <trkpt lat="43.08184" lon="-0.40699">
        <ele>637.010742</ele>
        <time>2014-10-02T07:48:10Z</time>
      </trkpt>
      <trkpt lat="43.08185" lon="-0.407">
        <ele>637.972168</ele>
        <time>2014-10-02T07:48:21Z</time>
      </trkpt>
      <trkpt lat="43.08188" lon="-0.40688">
        <ele>640.855957</ele>
        <time>2014-10-02T07:48:34Z</time>
      </trkpt>
      <trkpt lat="43.08174" lon="-0.40673">
        <ele>644.220703</ele>
        <time>2014-10-02T07:48:50Z</time>
      </trkpt>
      <trkpt lat="43.08167" lon="-0.40668">
        <ele>645.181885</ele>
        <time>2014-10-02T07:48:59Z</time>
      </trkpt>
      <trkpt lat="43.08164" lon="-0.40657">
        <ele>648.065918</ele>
        <time>2014-10-02T07:49:16Z</time>
      </trkpt>
      <trkpt lat="43.08155" lon="-0.40653">
        <ele>651.43042</ele>
        <time>2014-10-02T07:49:37Z</time>
      </trkpt>
      <trkpt lat="43.0818" lon="-0.40655">
        <ele>654.314697</ele>
        <time>2014-10-02T07:49:58Z</time>
      </trkpt>
      <trkpt lat="43.08188" lon="-0.40655">
        <ele>657.679199</ele>
        <time>2014-10-02T07:50:10Z</time>
      </trkpt>
      <trkpt lat="43.08204" lon="-0.4065">
        <ele>661.043701</ele>
        <time>2014-10-02T07:50:26Z</time>
      </trkpt>
      <trkpt lat="43.08213" lon="-0.4065">
        <ele>662.005127</ele>
        <time>2014-10-02T07:50:29Z</time>
      </trkpt>
      <trkpt lat="43.08212" lon="-0.40644">
        <ele>664.888916</ele>
        <time>2014-10-02T07:50:49Z</time>
      </trkpt>
      <trkpt lat="43.08225" lon="-0.40638">
        <ele>667.772705</ele>
        <time>2014-10-02T07:51:08Z</time>
      </trkpt>
      <trkpt lat="43.08234" lon="-0.40629">
        <ele>670.17627</ele>
        <time>2014-10-02T07:51:23Z</time>
      </trkpt>
      <trkpt lat="43.08217" lon="-0.40619">
        <ele>673.541016</ele>
        <time>2014-10-02T07:51:38Z</time>
      </trkpt>
      <trkpt lat="43.08207" lon="-0.40614">
        <ele>676.424805</ele>
        <time>2014-10-02T07:51:50Z</time>
      </trkpt>
      <trkpt lat="43.082" lon="-0.40605">
        <ele>677.866699</ele>
        <time>2014-10-02T07:52:03Z</time>
      </trkpt>
      <trkpt lat="43.08184" lon="-0.40595">
        <ele>679.789307</ele>
        <time>2014-10-02T07:52:19Z</time>
      </trkpt>
      <trkpt lat="43.08176" lon="-0.40588">
        <ele>681.231445</ele>
        <time>2014-10-02T07:52:29Z</time>
      </trkpt>
      <trkpt lat="43.08171" lon="-0.40581">
        <ele>684.115479</ele>
        <time>2014-10-02T07:52:40Z</time>
      </trkpt>
      <trkpt lat="43.08185" lon="-0.40582">
        <ele>687.47998</ele>
        <time>2014-10-02T07:53:03Z</time>
      </trkpt>
      <trkpt lat="43.08196" lon="-0.40579">
        <ele>689.883301</ele>
        <time>2014-10-02T07:53:18Z</time>
      </trkpt>
      <trkpt lat="43.08206" lon="-0.40578">
        <ele>693.247803</ele>
        <time>2014-10-02T07:53:30Z</time>
      </trkpt>
      <trkpt lat="43.08205" lon="-0.40563">
        <ele>696.612549</ele>
        <time>2014-10-02T07:53:50Z</time>
      </trkpt>
      <trkpt lat="43.08192" lon="-0.40553">
        <ele>699.496338</ele>
        <time>2014-10-02T07:54:08Z</time>
      </trkpt>
      <trkpt lat="43.0819" lon="-0.40546">
        <ele>702.380371</ele>
        <time>2014-10-02T07:54:21Z</time>
      </trkpt>
      <trkpt lat="43.08198" lon="-0.40549">
        <ele>704.303223</ele>
        <time>2014-10-02T07:54:41Z</time>
      </trkpt>
      <trkpt lat="43.08215" lon="-0.40545">
        <ele>707.667725</ele>
        <time>2014-10-02T07:54:54Z</time>
      </trkpt>
      <trkpt lat="43.08223" lon="-0.40545">
        <ele>709.109619</ele>
        <time>2014-10-02T07:55:04Z</time>
      </trkpt>
      <trkpt lat="43.08204" lon="-0.40529">
        <ele>711.032227</ele>
        <time>2014-10-02T07:55:21Z</time>
      </trkpt>
      <trkpt lat="43.08207" lon="-0.40525">
        <ele>714.877441</ele>
        <time>2014-10-02T07:55:38Z</time>
      </trkpt>
      <trkpt lat="43.08235" lon="-0.40523">
        <ele>718.242188</ele>
        <time>2014-10-02T07:56:02Z</time>
      </trkpt>
      <trkpt lat="43.08216" lon="-0.40507">
        <ele>720.645508</ele>
        <time>2014-10-02T07:56:24Z</time>
      </trkpt>
      <trkpt lat="43.08207" lon="-0.40501">
        <ele>722.568115</ele>
        <time>2014-10-02T07:56:33Z</time>
      </trkpt>
      <trkpt lat="43.08199" lon="-0.40497">
        <ele>723.529541</ele>
        <time>2014-10-02T07:56:45Z</time>
      </trkpt>
      <trkpt lat="43.08197" lon="-0.40495">
        <ele>725.451904</ele>
        <time>2014-10-02T07:56:48Z</time>
      </trkpt>
      <trkpt lat="43.08187" lon="-0.40489">
        <ele>728.335938</ele>
        <time>2014-10-02T07:57:01Z</time>
      </trkpt>
      <trkpt lat="43.08211" lon="-0.40493">
        <ele>730.258545</ele>
        <time>2014-10-02T07:57:20Z</time>
      </trkpt>
      <trkpt lat="43.08222" lon="-0.40489">
        <ele>730.739258</ele>
        <time>2014-10-02T07:57:29Z</time>
      </trkpt>
      <trkpt lat="43.08214" lon="-0.40479">
        <ele>735.06543</ele>
        <time>2014-10-02T07:57:43Z</time>
      </trkpt>
      <trkpt lat="43.08203" lon="-0.40469">
        <ele>736.987793</ele>
        <time>2014-10-02T07:57:54Z</time>
      </trkpt>
      <trkpt lat="43.0819" lon="-0.40459">
        <ele>740.352539</ele>
        <time>2014-10-02T07:58:13Z</time>
      </trkpt>
      <trkpt lat="43.08186" lon="-0.40454">
        <ele>743.717041</ele>
        <time>2014-10-02T07:58:27Z</time>
      </trkpt>
      <trkpt lat="43.08201" lon="-0.40454">
        <ele>745.158936</ele>
        <time>2014-10-02T07:58:48Z</time>
      </trkpt>
      <trkpt lat="43.0821" lon="-0.40452">
        <ele>746.601074</ele>
        <time>2014-10-02T07:58:59Z</time>
      </trkpt>
      <trkpt lat="43.08217" lon="-0.40445">
        <ele>747.562256</ele>
        <time>2014-10-02T07:59:18Z</time>
      </trkpt>
      <trkpt lat="43.08216" lon="-0.40439">
        <ele>749.96582</ele>
        <time>2014-10-02T07:59:30Z</time>
      </trkpt>
      <trkpt lat="43.08207" lon="-0.40435">
        <ele>751.407715</ele>
        <time>2014-10-02T07:59:42Z</time>
      </trkpt>
      <trkpt lat="43.08196" lon="-0.40429">
        <ele>752.368896</ele>
        <time>2014-10-02T07:59:56Z</time>
      </trkpt>
      <trkpt lat="43.08207" lon="-0.40428">
        <ele>755.25293</ele>
        <time>2014-10-02T08:00:09Z</time>
      </trkpt>
      <trkpt lat="43.08207" lon="-0.40431">
        <ele>756.694824</ele>
        <time>2014-10-02T08:00:35Z</time>
      </trkpt>
      <trkpt lat="43.08224" lon="-0.40421">
        <ele>759.098145</ele>
        <time>2014-10-02T08:00:52Z</time>
      </trkpt>
      <trkpt lat="43.08219" lon="-0.40413">
        <ele>761.020752</ele>
        <time>2014-10-02T08:01:04Z</time>
      </trkpt>
      <trkpt lat="43.0821" lon="-0.40402">
        <ele>764.385498</ele>
        <time>2014-10-02T08:01:20Z</time>
      </trkpt>
      <trkpt lat="43.08203" lon="-0.40399">
        <ele>766.788818</ele>
        <time>2014-10-02T08:01:30Z</time>
      </trkpt>
      <trkpt lat="43.08193" lon="-0.40395">
        <ele>768.711426</ele>
        <time>2014-10-02T08:01:43Z</time>
      </trkpt>
      <trkpt lat="43.08186" lon="-0.40389">
        <ele>771.114746</ele>
        <time>2014-10-02T08:01:55Z</time>
      </trkpt>
      <trkpt lat="43.0818" lon="-0.40383">
        <ele>772.075928</ele>
        <time>2014-10-02T08:02:06Z</time>
      </trkpt>
      <trkpt lat="43.08185" lon="-0.40384">
        <ele>774.479248</ele>
        <time>2014-10-02T08:02:14Z</time>
      </trkpt>
      <trkpt lat="43.08188" lon="-0.40383">
        <ele>774.479248</ele>
        <time>2014-10-02T08:02:16Z</time>
      </trkpt>
      <trkpt lat="43.08183" lon="-0.40371">
        <ele>777.363281</ele>
        <time>2014-10-02T08:02:31Z</time>
      </trkpt>
      <trkpt lat="43.08168" lon="-0.40359">
        <ele>780.247314</ele>
        <time>2014-10-02T08:02:54Z</time>
      </trkpt>
      <trkpt lat="43.08174" lon="-0.4036">
        <ele>782.650635</ele>
        <time>2014-10-02T08:03:08Z</time>
      </trkpt>
      <trkpt lat="43.08182" lon="-0.4036">
        <ele>785.053955</ele>
        <time>2014-10-02T08:03:24Z</time>
      </trkpt>
      <trkpt lat="43.0819" lon="-0.4035">
        <ele>787.457031</ele>
        <time>2014-10-02T08:03:36Z</time>
      </trkpt>
      <trkpt lat="43.082" lon="-0.40343">
        <ele>790.341064</ele>
        <time>2014-10-02T08:03:48Z</time>
      </trkpt>
      <trkpt lat="43.08209" lon="-0.40335">
        <ele>793.224854</ele>
        <time>2014-10-02T08:04:02Z</time>
      </trkpt>
      <trkpt lat="43.08221" lon="-0.40327">
        <ele>795.147461</ele>
        <time>2014-10-02T08:04:16Z</time>
      </trkpt>
      <trkpt lat="43.08227" lon="-0.40321">
        <ele>796.589844</ele>
        <time>2014-10-02T08:04:26Z</time>
      </trkpt>
      <trkpt lat="43.08234" lon="-0.40318">
        <ele>798.512207</ele>
        <time>2014-10-02T08:04:36Z</time>
      </trkpt>
      <trkpt lat="43.08239" lon="-0.40311">
        <ele>799.473633</ele>
        <time>2014-10-02T08:04:50Z</time>
      </trkpt>
      <trkpt lat="43.08245" lon="-0.40304">
        <ele>801.39624</ele>
        <time>2014-10-02T08:05:04Z</time>
      </trkpt>
      <trkpt lat="43.0825" lon="-0.40295">
        <ele>803.799561</ele>
        <time>2014-10-02T08:05:15Z</time>
      </trkpt>
      <trkpt lat="43.08258" lon="-0.40284">
        <ele>806.68335</ele>
        <time>2014-10-02T08:05:25Z</time>
      </trkpt>
      <trkpt lat="43.08251" lon="-0.40273">
        <ele>808.605957</ele>
        <time>2014-10-02T08:05:37Z</time>
      </trkpt>
      <trkpt lat="43.0825" lon="-0.40266">
        <ele>809.08667</ele>
        <time>2014-10-02T08:05:51Z</time>
      </trkpt>
      <trkpt lat="43.08255" lon="-0.40253">
        <ele>812.451416</ele>
        <time>2014-10-02T08:06:03Z</time>
      </trkpt>
      <trkpt lat="43.08252" lon="-0.40242">
        <ele>813.893311</ele>
        <time>2014-10-02T08:06:14Z</time>
      </trkpt>
      <trkpt lat="43.08242" lon="-0.40242">
        <ele>816.777344</ele>
        <time>2014-10-02T08:06:26Z</time>
      </trkpt>
      <trkpt lat="43.08231" lon="-0.4024">
        <ele>819.661377</ele>
        <time>2014-10-02T08:06:39Z</time>
      </trkpt>
      <trkpt lat="43.08222" lon="-0.40241">
        <ele>820.622559</ele>
        <time>2014-10-02T08:06:50Z</time>
      </trkpt>
      <trkpt lat="43.08226" lon="-0.40227">
        <ele>822.545166</ele>
        <time>2014-10-02T08:07:03Z</time>
      </trkpt>
      <trkpt lat="43.08221" lon="-0.40216">
        <ele>824.948486</ele>
        <time>2014-10-02T08:07:15Z</time>
      </trkpt>
      <trkpt lat="43.08213" lon="-0.40215">
        <ele>825.428955</ele>
        <time>2014-10-02T08:07:24Z</time>
      </trkpt>
      <trkpt lat="43.08208" lon="-0.40216">
        <ele>828.793945</ele>
        <time>2014-10-02T08:07:35Z</time>
      </trkpt>
      <trkpt lat="43.08205" lon="-0.40203">
        <ele>830.23584</ele>
        <time>2014-10-02T08:07:47Z</time>
      </trkpt>
      <trkpt lat="43.082" lon="-0.40189">
        <ele>832.63916</ele>
        <time>2014-10-02T08:08:01Z</time>
      </trkpt>
      <trkpt lat="43.08195" lon="-0.40176">
        <ele>834.561768</ele>
        <time>2014-10-02T08:08:14Z</time>
      </trkpt>
      <trkpt lat="43.08189" lon="-0.40162">
        <ele>838.406982</ele>
        <time>2014-10-02T08:08:29Z</time>
      </trkpt>
      <trkpt lat="43.08185" lon="-0.40153">
        <ele>839.848877</ele>
        <time>2014-10-02T08:08:40Z</time>
      </trkpt>
      <trkpt lat="43.0818" lon="-0.40156">
        <ele>841.290771</ele>
        <time>2014-10-02T08:08:51Z</time>
      </trkpt>
      <trkpt lat="43.08174" lon="-0.40172">
        <ele>843.694092</ele>
        <time>2014-10-02T08:09:07Z</time>
      </trkpt>
      <trkpt lat="43.0817" lon="-0.40175">
        <ele>843.694092</ele>
        <time>2014-10-02T08:09:31Z</time>
      </trkpt>
      <trkpt lat="43.08172" lon="-0.40169">
        <ele>844.655518</ele>
        <time>2014-10-02T08:10:25Z</time>
      </trkpt>
      <trkpt lat="43.08174" lon="-0.40168">
        <ele>843.694092</ele>
        <time>2014-10-02T08:10:39Z</time>
      </trkpt>
      <trkpt lat="43.08173" lon="-0.40158">
        <ele>846.097656</ele>
        <time>2014-10-02T08:10:58Z</time>
      </trkpt>
      <trkpt lat="43.08169" lon="-0.40138">
        <ele>848.020264</ele>
        <time>2014-10-02T08:11:14Z</time>
      </trkpt>
      <trkpt lat="43.0817" lon="-0.40124">
        <ele>849.462158</ele>
        <time>2014-10-02T08:11:28Z</time>
      </trkpt>
      <trkpt lat="43.08171" lon="-0.4011">
        <ele>849.942871</ele>
        <time>2014-10-02T08:11:40Z</time>
      </trkpt>
      <trkpt lat="43.08171" lon="-0.40109">
        <ele>850.423584</ele>
        <time>2014-10-02T08:11:41Z</time>
      </trkpt>
      <trkpt lat="43.08174" lon="-0.40099">
        <ele>850.904053</ele>
        <time>2014-10-02T08:11:47Z</time>
      </trkpt>
      <trkpt lat="43.08173" lon="-0.40085">
        <ele>852.82666</ele>
        <time>2014-10-02T08:11:59Z</time>
      </trkpt>
      <trkpt lat="43.08171" lon="-0.40071">
        <ele>853.788086</ele>
        <time>2014-10-02T08:12:11Z</time>
      </trkpt>
      <trkpt lat="43.08168" lon="-0.40053">
        <ele>856.671875</ele>
        <time>2014-10-02T08:12:24Z</time>
      </trkpt>
      <trkpt lat="43.08168" lon="-0.40033">
        <ele>859.075195</ele>
        <time>2014-10-02T08:12:41Z</time>
      </trkpt>
      <trkpt lat="43.08171" lon="-0.40024">
        <ele>859.075195</ele>
        <time>2014-10-02T08:12:51Z</time>
      </trkpt>
      <trkpt lat="43.08172" lon="-0.40021">
        <ele>858.594482</ele>
        <time>2014-10-02T08:12:56Z</time>
      </trkpt>
      <trkpt lat="43.08175" lon="-0.40009">
        <ele>859.555908</ele>
        <time>2014-10-02T08:13:07Z</time>
      </trkpt>
      <trkpt lat="43.08178" lon="-0.39984">
        <ele>860.036621</ele>
        <time>2014-10-02T08:13:27Z</time>
      </trkpt>
      <trkpt lat="43.08182" lon="-0.3997">
        <ele>860.517334</ele>
        <time>2014-10-02T08:13:38Z</time>
      </trkpt>
      <trkpt lat="43.08183" lon="-0.39948">
        <ele>860.517334</ele>
        <time>2014-10-02T08:13:54Z</time>
      </trkpt>
      <trkpt lat="43.08186" lon="-0.39925">
        <ele>863.401367</ele>
        <time>2014-10-02T08:14:09Z</time>
      </trkpt>
      <trkpt lat="43.08186" lon="-0.39911">
        <ele>864.843262</ele>
        <time>2014-10-02T08:14:19Z</time>
      </trkpt>
      <trkpt lat="43.08184" lon="-0.39898">
        <ele>864.362549</ele>
        <time>2014-10-02T08:14:29Z</time>
      </trkpt>
      <trkpt lat="43.08184" lon="-0.39882">
        <ele>865.804688</ele>
        <time>2014-10-02T08:14:40Z</time>
      </trkpt>
      <trkpt lat="43.08187" lon="-0.39867">
        <ele>866.765869</ele>
        <time>2014-10-02T08:14:50Z</time>
      </trkpt>
      <trkpt lat="43.08192" lon="-0.39858">
        <ele>866.765869</ele>
        <time>2014-10-02T08:14:55Z</time>
      </trkpt>
      <trkpt lat="43.08194" lon="-0.39844">
        <ele>868.207764</ele>
        <time>2014-10-02T08:15:03Z</time>
      </trkpt>
      <trkpt lat="43.0818" lon="-0.39818">
        <ele>869.169189</ele>
        <time>2014-10-02T08:15:16Z</time>
      </trkpt>
      <trkpt lat="43.08179" lon="-0.39816">
        <ele>869.169189</ele>
        <time>2014-10-02T08:15:17Z</time>
      </trkpt>
      <trkpt lat="43.08176" lon="-0.39808">
        <ele>870.130371</ele>
        <time>2014-10-02T08:15:22Z</time>
      </trkpt>
      <trkpt lat="43.08173" lon="-0.39789">
        <ele>871.091797</ele>
        <time>2014-10-02T08:15:37Z</time>
      </trkpt>
      <trkpt lat="43.08177" lon="-0.39777">
        <ele>871.572266</ele>
        <time>2014-10-02T08:15:49Z</time>
      </trkpt>
      <trkpt lat="43.08178" lon="-0.39759">
        <ele>872.052979</ele>
        <time>2014-10-02T08:16:02Z</time>
      </trkpt>
      <trkpt lat="43.08176" lon="-0.39735">
        <ele>873.014404</ele>
        <time>2014-10-02T08:16:18Z</time>
      </trkpt>
      <trkpt lat="43.0817" lon="-0.39721">
        <ele>872.533691</ele>
        <time>2014-10-02T08:16:28Z</time>
      </trkpt>
      <trkpt lat="43.08169" lon="-0.39713">
        <ele>872.052979</ele>
        <time>2014-10-02T08:16:33Z</time>
      </trkpt>
      <trkpt lat="43.08165" lon="-0.39695">
        <ele>870.611084</ele>
        <time>2014-10-02T08:16:44Z</time>
      </trkpt>
      <trkpt lat="43.08166" lon="-0.39683">
        <ele>871.091797</ele>
        <time>2014-10-02T08:16:53Z</time>
      </trkpt>
      <trkpt lat="43.08166" lon="-0.39668">
        <ele>873.014404</ele>
        <time>2014-10-02T08:17:08Z</time>
      </trkpt>
      <trkpt lat="43.08174" lon="-0.39666">
        <ele>874.456299</ele>
        <time>2014-10-02T08:17:20Z</time>
      </trkpt>
      <trkpt lat="43.08185" lon="-0.39655">
        <ele>876.37915</ele>
        <time>2014-10-02T08:17:34Z</time>
      </trkpt>
      <trkpt lat="43.08184" lon="-0.3964">
        <ele>878.301758</ele>
        <time>2014-10-02T08:17:42Z</time>
      </trkpt>
      <trkpt lat="43.08184" lon="-0.39638">
        <ele>878.782471</ele>
        <time>2014-10-02T08:17:44Z</time>
      </trkpt>
      <trkpt lat="43.08186" lon="-0.39626">
        <ele>880.705078</ele>
        <time>2014-10-02T08:17:53Z</time>
      </trkpt>
      <trkpt lat="43.08188" lon="-0.39618">
        <ele>880.705078</ele>
        <time>2014-10-02T08:17:58Z</time>
      </trkpt>
      <trkpt lat="43.0819" lon="-0.39615">
        <ele>882.146973</ele>
        <time>2014-10-02T08:18:01Z</time>
      </trkpt>
      <trkpt lat="43.08198" lon="-0.39602">
        <ele>883.108154</ele>
        <time>2014-10-02T08:18:12Z</time>
      </trkpt>
      <trkpt lat="43.08199" lon="-0.39599">
        <ele>883.108154</ele>
        <time>2014-10-02T08:18:14Z</time>
      </trkpt>
      <trkpt lat="43.08198" lon="-0.39576">
        <ele>885.031006</ele>
        <time>2014-10-02T08:18:30Z</time>
      </trkpt>
      <trkpt lat="43.08193" lon="-0.39562">
        <ele>885.511475</ele>
        <time>2014-10-02T08:18:51Z</time>
      </trkpt>
      <trkpt lat="43.08197" lon="-0.39558">
        <ele>885.992188</ele>
        <time>2014-10-02T08:19:05Z</time>
      </trkpt>
      <trkpt lat="43.08203" lon="-0.39548">
        <ele>887.434082</ele>
        <time>2014-10-02T08:19:33Z</time>
      </trkpt>
      <trkpt lat="43.08204" lon="-0.39529">
        <ele>890.318115</ele>
        <time>2014-10-02T08:19:48Z</time>
      </trkpt>
      <trkpt lat="43.08202" lon="-0.39518">
        <ele>892.240967</ele>
        <time>2014-10-02T08:20:00Z</time>
      </trkpt>
      <trkpt lat="43.08191" lon="-0.39525">
        <ele>895.605469</ele>
        <time>2014-10-02T08:20:13Z</time>
      </trkpt>
      <trkpt lat="43.08182" lon="-0.39535">
        <ele>897.047363</ele>
        <time>2014-10-02T08:20:26Z</time>
      </trkpt>
      <trkpt lat="43.08178" lon="-0.39534">
        <ele>900.412109</ele>
        <time>2014-10-02T08:20:37Z</time>
      </trkpt>
      <trkpt lat="43.08181" lon="-0.3952">
        <ele>901.373291</ele>
        <time>2014-10-02T08:20:50Z</time>
      </trkpt>
      <trkpt lat="43.08183" lon="-0.39505">
        <ele>903.295898</ele>
        <time>2014-10-02T08:21:04Z</time>
      </trkpt>
      <trkpt lat="43.08188" lon="-0.39489">
        <ele>905.218506</ele>
        <time>2014-10-02T08:21:20Z</time>
      </trkpt>
      <trkpt lat="43.08193" lon="-0.39473">
        <ele>907.141113</ele>
        <time>2014-10-02T08:21:38Z</time>
      </trkpt>
      <trkpt lat="43.08195" lon="-0.39463">
        <ele>908.583252</ele>
        <time>2014-10-02T08:21:53Z</time>
      </trkpt>
      <trkpt lat="43.08198" lon="-0.3945">
        <ele>909.544678</ele>
        <time>2014-10-02T08:22:06Z</time>
      </trkpt>
      <trkpt lat="43.08201" lon="-0.39438">
        <ele>911.467285</ele>
        <time>2014-10-02T08:22:16Z</time>
      </trkpt>
      <trkpt lat="43.08206" lon="-0.39418">
        <ele>913.870361</ele>
        <time>2014-10-02T08:22:31Z</time>
      </trkpt>
      <trkpt lat="43.08207" lon="-0.39401">
        <ele>915.793213</ele>
        <time>2014-10-02T08:22:43Z</time>
      </trkpt>
      <trkpt lat="43.08209" lon="-0.39379">
        <ele>916.754395</ele>
        <time>2014-10-02T08:22:59Z</time>
      </trkpt>
      <trkpt lat="43.08208" lon="-0.39357">
        <ele>916.754395</ele>
        <time>2014-10-02T08:23:15Z</time>
      </trkpt>
      <trkpt lat="43.08206" lon="-0.3935">
        <ele>919.638428</ele>
        <time>2014-10-02T08:23:28Z</time>
      </trkpt>
      <trkpt lat="43.08204" lon="-0.39354">
        <ele>919.638428</ele>
        <time>2014-10-02T08:23:33Z</time>
      </trkpt>
      <trkpt lat="43.08196" lon="-0.39373">
        <ele>921.080322</ele>
        <time>2014-10-02T08:23:48Z</time>
      </trkpt>
      <trkpt lat="43.0819" lon="-0.39388">
        <ele>924.445068</ele>
        <time>2014-10-02T08:24:01Z</time>
      </trkpt>
      <trkpt lat="43.0818" lon="-0.39399">
        <ele>927.80957</ele>
        <time>2014-10-02T08:24:14Z</time>
      </trkpt>
      <trkpt lat="43.08169" lon="-0.39412">
        <ele>929.732178</ele>
        <time>2014-10-02T08:24:31Z</time>
      </trkpt>
      <trkpt lat="43.08157" lon="-0.39425">
        <ele>931.654785</ele>
        <time>2014-10-02T08:24:47Z</time>
      </trkpt>
      <trkpt lat="43.08158" lon="-0.39427">
        <ele>934.058105</ele>
        <time>2014-10-02T08:24:57Z</time>
      </trkpt>
      <trkpt lat="43.08165" lon="-0.39419">
        <ele>936.461426</ele>
        <time>2014-10-02T08:25:10Z</time>
      </trkpt>
      <trkpt lat="43.08165" lon="-0.39416">
        <ele>936.941895</ele>
        <time>2014-10-02T08:25:15Z</time>
      </trkpt>
      <trkpt lat="43.08153" lon="-0.39417">
        <ele>938.384033</ele>
        <time>2014-10-02T08:25:28Z</time>
      </trkpt>
      <trkpt lat="43.08147" lon="-0.39431">
        <ele>940.787354</ele>
        <time>2014-10-02T08:25:41Z</time>
      </trkpt>
      <trkpt lat="43.08137" lon="-0.39442">
        <ele>941.748779</ele>
        <time>2014-10-02T08:25:55Z</time>
      </trkpt>
      <trkpt lat="43.0813" lon="-0.39448">
        <ele>943.190674</ele>
        <time>2014-10-02T08:26:04Z</time>
      </trkpt>
      <trkpt lat="43.08126" lon="-0.39453">
        <ele>944.632568</ele>
        <time>2014-10-02T08:26:11Z</time>
      </trkpt>
      <trkpt lat="43.08118" lon="-0.39468">
        <ele>947.035889</ele>
        <time>2014-10-02T08:26:26Z</time>
      </trkpt>
      <trkpt lat="43.08112" lon="-0.39475">
        <ele>949.919922</ele>
        <time>2014-10-02T08:26:36Z</time>
      </trkpt>
      <trkpt lat="43.08108" lon="-0.39486">
        <ele>953.284424</ele>
        <time>2014-10-02T08:26:51Z</time>
      </trkpt>
      <trkpt lat="43.08098" lon="-0.39496">
        <ele>954.726318</ele>
        <time>2014-10-02T08:27:06Z</time>
      </trkpt>
      <trkpt lat="43.08094" lon="-0.39498">
        <ele>957.129883</ele>
        <time>2014-10-02T08:27:15Z</time>
      </trkpt>
      <trkpt lat="43.08084" lon="-0.39504">
        <ele>959.533203</ele>
        <time>2014-10-02T08:27:28Z</time>
      </trkpt>
      <trkpt lat="43.08082" lon="-0.39507">
        <ele>960.975098</ele>
        <time>2014-10-02T08:27:31Z</time>
      </trkpt>
      <trkpt lat="43.08078" lon="-0.39512">
        <ele>961.936523</ele>
        <time>2014-10-02T08:27:41Z</time>
      </trkpt>
      <trkpt lat="43.08076" lon="-0.39524">
        <ele>965.301025</ele>
        <time>2014-10-02T08:27:53Z</time>
      </trkpt>
      <trkpt lat="43.08076" lon="-0.39525">
        <ele>965.301025</ele>
        <time>2014-10-02T08:27:54Z</time>
      </trkpt>
      <trkpt lat="43.08068" lon="-0.39538">
        <ele>966.74292</ele>
        <time>2014-10-02T08:28:11Z</time>
      </trkpt>
      <trkpt lat="43.08058" lon="-0.3955">
        <ele>967.223633</ele>
        <time>2014-10-02T08:28:33Z</time>
      </trkpt>
      <trkpt lat="43.08056" lon="-0.39571">
        <ele>970.588135</ele>
        <time>2014-10-02T08:28:48Z</time>
      </trkpt>
      <trkpt lat="43.08051" lon="-0.39587">
        <ele>972.510986</ele>
        <time>2014-10-02T08:29:00Z</time>
      </trkpt>
      <trkpt lat="43.08045" lon="-0.3961">
        <ele>973.952881</ele>
        <time>2014-10-02T08:29:18Z</time>
      </trkpt>
      <trkpt lat="43.08039" lon="-0.39618">
        <ele>975.394775</ele>
        <time>2014-10-02T08:29:30Z</time>
      </trkpt>
      <trkpt lat="43.08036" lon="-0.39629">
        <ele>976.356201</ele>
        <time>2014-10-02T08:29:40Z</time>
      </trkpt>
      <trkpt lat="43.08029" lon="-0.3965">
        <ele>978.278809</ele>
        <time>2014-10-02T08:29:56Z</time>
      </trkpt>
      <trkpt lat="43.08027" lon="-0.39663">
        <ele>981.162842</ele>
        <time>2014-10-02T08:30:07Z</time>
      </trkpt>
      <trkpt lat="43.08028" lon="-0.39682">
        <ele>983.085205</ele>
        <time>2014-10-02T08:30:20Z</time>
      </trkpt>
      <trkpt lat="43.08022" lon="-0.39706">
        <ele>985.969238</ele>
        <time>2014-10-02T08:30:42Z</time>
      </trkpt>
      <trkpt lat="43.08018" lon="-0.39718">
        <ele>988.853516</ele>
        <time>2014-10-02T08:30:53Z</time>
      </trkpt>
      <trkpt lat="43.08015" lon="-0.39717">
        <ele>992.69873</ele>
        <time>2014-10-02T08:31:08Z</time>
      </trkpt>
      <trkpt lat="43.08017" lon="-0.3972">
        <ele>994.621094</ele>
        <time>2014-10-02T08:31:21Z</time>
      </trkpt>
      <trkpt lat="43.08014" lon="-0.39733">
        <ele>997.98584</ele>
        <time>2014-10-02T08:31:35Z</time>
      </trkpt>
      <trkpt lat="43.08014" lon="-0.39748">
        <ele>998.466309</ele>
        <time>2014-10-02T08:31:47Z</time>
      </trkpt>
      <trkpt lat="43.0801" lon="-0.39758">
        <ele>999.908447</ele>
        <time>2014-10-02T08:31:58Z</time>
      </trkpt>
      <trkpt lat="43.08008" lon="-0.39766">
        <ele>1001.350342</ele>
        <time>2014-10-02T08:32:09Z</time>
      </trkpt>
      <trkpt lat="43.08005" lon="-0.39771">
        <ele>1004.715088</ele>
        <time>2014-10-02T08:32:22Z</time>
      </trkpt>
      <trkpt lat="43.08004" lon="-0.39769">
        <ele>1006.156982</ele>
        <time>2014-10-02T08:32:36Z</time>
      </trkpt>
      <trkpt lat="43.08004" lon="-0.39783">
        <ele>1009.041016</ele>
        <time>2014-10-02T08:32:48Z</time>
      </trkpt>
      <trkpt lat="43.07998" lon="-0.39793">
        <ele>1012.405518</ele>
        <time>2014-10-02T08:33:01Z</time>
      </trkpt>
      <trkpt lat="43.07994" lon="-0.39804">
        <ele>1014.808838</ele>
        <time>2014-10-02T08:33:14Z</time>
      </trkpt>
      <trkpt lat="43.07989" lon="-0.39819">
        <ele>1017.692627</ele>
        <time>2014-10-02T08:33:27Z</time>
      </trkpt>
      <trkpt lat="43.07985" lon="-0.3983">
        <ele>1019.134766</ele>
        <time>2014-10-02T08:33:40Z</time>
      </trkpt>
      <trkpt lat="43.0798" lon="-0.39834">
        <ele>1022.499512</ele>
        <time>2014-10-02T08:33:51Z</time>
      </trkpt>
      <trkpt lat="43.0798" lon="-0.39833">
        <ele>1025.383301</ele>
        <time>2014-10-02T08:34:06Z</time>
      </trkpt>
      <trkpt lat="43.07979" lon="-0.39833">
        <ele>1025.383301</ele>
        <time>2014-10-02T08:34:08Z</time>
      </trkpt>
      <trkpt lat="43.0797" lon="-0.39841">
        <ele>1027.306152</ele>
        <time>2014-10-02T08:34:19Z</time>
      </trkpt>
      <trkpt lat="43.07972" lon="-0.39839">
        <ele>1029.228516</ele>
        <time>2014-10-02T08:34:34Z</time>
      </trkpt>
      <trkpt lat="43.07975" lon="-0.39828">
        <ele>1032.593262</ele>
        <time>2014-10-02T08:34:47Z</time>
      </trkpt>
      <trkpt lat="43.07966" lon="-0.39831">
        <ele>1033.554443</ele>
        <time>2014-10-02T08:34:59Z</time>
      </trkpt>
      <trkpt lat="43.07961" lon="-0.39824">
        <ele>1034.996582</ele>
        <time>2014-10-02T08:35:10Z</time>
      </trkpt>
      <trkpt lat="43.07964" lon="-0.39819">
        <ele>1038.361328</ele>
        <time>2014-10-02T08:35:18Z</time>
      </trkpt>
      <trkpt lat="43.07966" lon="-0.39813">
        <ele>1039.803223</ele>
        <time>2014-10-02T08:35:27Z</time>
      </trkpt>
      <trkpt lat="43.07955" lon="-0.39809">
        <ele>1041.72583</ele>
        <time>2014-10-02T08:35:47Z</time>
      </trkpt>
      <trkpt lat="43.07944" lon="-0.39816">
        <ele>1045.090332</ele>
        <time>2014-10-02T08:36:02Z</time>
      </trkpt>
      <trkpt lat="43.07942" lon="-0.39814">
        <ele>1047.974365</ele>
        <time>2014-10-02T08:36:19Z</time>
      </trkpt>
      <trkpt lat="43.07943" lon="-0.3981">
        <ele>1049.896973</ele>
        <time>2014-10-02T08:36:24Z</time>
      </trkpt>
      <trkpt lat="43.07946" lon="-0.398">
        <ele>1052.781006</ele>
        <time>2014-10-02T08:36:36Z</time>
      </trkpt>
      <trkpt lat="43.07947" lon="-0.39783">
        <ele>1056.145508</ele>
        <time>2014-10-02T08:36:55Z</time>
      </trkpt>
      <trkpt lat="43.07947" lon="-0.3977">
        <ele>1058.548828</ele>
        <time>2014-10-02T08:37:09Z</time>
      </trkpt>
      <trkpt lat="43.07939" lon="-0.3977">
        <ele>1060.471436</ele>
        <time>2014-10-02T08:37:22Z</time>
      </trkpt>
      <trkpt lat="43.07932" lon="-0.39772">
        <ele>1063.355469</ele>
        <time>2014-10-02T08:37:35Z</time>
      </trkpt>
      <trkpt lat="43.07932" lon="-0.39761">
        <ele>1065.758789</ele>
        <time>2014-10-02T08:37:49Z</time>
      </trkpt>
      <trkpt lat="43.07931" lon="-0.39744">
        <ele>1068.162109</ele>
        <time>2014-10-02T08:38:06Z</time>
      </trkpt>
      <trkpt lat="43.07924" lon="-0.39728">
        <ele>1070.084717</ele>
        <time>2014-10-02T08:38:23Z</time>
      </trkpt>
      <trkpt lat="43.07915" lon="-0.39717">
        <ele>1073.449463</ele>
        <time>2014-10-02T08:38:40Z</time>
      </trkpt>
      <trkpt lat="43.07907" lon="-0.39713">
        <ele>1075.371826</ele>
        <time>2014-10-02T08:38:54Z</time>
      </trkpt>
      <trkpt lat="43.0791" lon="-0.39722">
        <ele>1078.255859</ele>
        <time>2014-10-02T08:39:26Z</time>
      </trkpt>
      <trkpt lat="43.07902" lon="-0.39734">
        <ele>1081.620361</ele>
        <time>2014-10-02T08:39:41Z</time>
      </trkpt>
      <trkpt lat="43.07896" lon="-0.39742">
        <ele>1084.504639</ele>
        <time>2014-10-02T08:39:53Z</time>
      </trkpt>
      <trkpt lat="43.07894" lon="-0.39754">
        <ele>1085.46582</ele>
        <time>2014-10-02T08:40:07Z</time>
      </trkpt>
      <trkpt lat="43.07889" lon="-0.3976">
        <ele>1087.388428</ele>
        <time>2014-10-02T08:40:23Z</time>
      </trkpt>
      <trkpt lat="43.07882" lon="-0.39767">
        <ele>1090.75293</ele>
        <time>2014-10-02T08:40:35Z</time>
      </trkpt>
      <trkpt lat="43.07874" lon="-0.39776">
        <ele>1091.714355</ele>
        <time>2014-10-02T08:40:50Z</time>
      </trkpt>
      <trkpt lat="43.07871" lon="-0.3978">
        <ele>1093.636963</ele>
        <time>2014-10-02T08:41:11Z</time>
      </trkpt>
      <trkpt lat="43.07866" lon="-0.39785">
        <ele>1095.55957</ele>
        <time>2014-10-02T08:41:28Z</time>
      </trkpt>
      <trkpt lat="43.07863" lon="-0.39784">
        <ele>1096.520996</ele>
        <time>2014-10-02T08:41:50Z</time>
      </trkpt>
      <trkpt lat="43.07864" lon="-0.39781">
        <ele>1096.520996</ele>
        <time>2014-10-02T08:42:17Z</time>
      </trkpt>
      <trkpt lat="43.07864" lon="-0.39782">
        <ele>1096.520996</ele>
        <time>2014-10-02T08:42:42Z</time>
      </trkpt>
      <trkpt lat="43.07864" lon="-0.39779">
        <ele>1097.962891</ele>
        <time>2014-10-02T08:42:49Z</time>
      </trkpt>
      <trkpt lat="43.07864" lon="-0.39775">
        <ele>1098.924072</ele>
        <time>2014-10-02T08:43:09Z</time>
      </trkpt>
      <trkpt lat="43.07866" lon="-0.39777">
        <ele>1099.404785</ele>
        <time>2014-10-02T08:43:46Z</time>
      </trkpt>
      <trkpt lat="43.07866" lon="-0.39777">
        <ele>1097.482178</ele>
        <time>2014-10-02T08:44:18Z</time>
      </trkpt>
      <trkpt lat="43.07863" lon="-0.39783">
        <ele>1101.327637</ele>
        <time>2014-10-02T08:48:39Z</time>
      </trkpt>
      <trkpt lat="43.07863" lon="-0.39783">
        <ele>1100.846924</ele>
        <time>2014-10-02T08:48:40Z</time>
      </trkpt>
      <trkpt lat="43.07863" lon="-0.39781">
        <ele>1099.885498</ele>
        <time>2014-10-02T08:48:42Z</time>
      </trkpt>
      <trkpt lat="43.07858" lon="-0.39777">
        <ele>1102.769531</ele>
        <time>2014-10-02T08:48:51Z</time>
      </trkpt>
      <trkpt lat="43.07855" lon="-0.39769">
        <ele>1105.172852</ele>
        <time>2014-10-02T08:49:04Z</time>
      </trkpt>
      <trkpt lat="43.07851" lon="-0.39765">
        <ele>1108.056885</ele>
        <time>2014-10-02T08:49:19Z</time>
      </trkpt>
      <trkpt lat="43.07846" lon="-0.39756">
        <ele>1109.979248</ele>
        <time>2014-10-02T08:49:34Z</time>
      </trkpt>
      <trkpt lat="43.07846" lon="-0.39751">
        <ele>1112.863281</ele>
        <time>2014-10-02T08:49:50Z</time>
      </trkpt>
      <trkpt lat="43.0784" lon="-0.39751">
        <ele>1115.747314</ele>
        <time>2014-10-02T08:50:03Z</time>
      </trkpt>
      <trkpt lat="43.07837" lon="-0.39745">
        <ele>1118.150635</ele>
        <time>2014-10-02T08:50:17Z</time>
      </trkpt>
      <trkpt lat="43.07833" lon="-0.39741">
        <ele>1121.515137</ele>
        <time>2014-10-02T08:50:30Z</time>
      </trkpt>
      <trkpt lat="43.07836" lon="-0.3973">
        <ele>1122.957275</ele>
        <time>2014-10-02T08:50:49Z</time>
      </trkpt>
      <trkpt lat="43.07836" lon="-0.39728">
        <ele>1124.879883</ele>
        <time>2014-10-02T08:50:54Z</time>
      </trkpt>
      <trkpt lat="43.07834" lon="-0.39721">
        <ele>1124.879883</ele>
        <time>2014-10-02T08:51:16Z</time>
      </trkpt>
      <trkpt lat="43.07835" lon="-0.39712">
        <ele>1126.321777</ele>
        <time>2014-10-02T08:51:27Z</time>
      </trkpt>
      <trkpt lat="43.07832" lon="-0.39706">
        <ele>1126.321777</ele>
        <time>2014-10-02T08:51:38Z</time>
      </trkpt>
      <trkpt lat="43.07828" lon="-0.39709">
        <ele>1129.205566</ele>
        <time>2014-10-02T08:51:54Z</time>
      </trkpt>
      <trkpt lat="43.07823" lon="-0.3971">
        <ele>1132.089844</ele>
        <time>2014-10-02T08:52:07Z</time>
      </trkpt>
      <trkpt lat="43.07821" lon="-0.39708">
        <ele>1134.012451</ele>
        <time>2014-10-02T08:52:20Z</time>
      </trkpt>
      <trkpt lat="43.07818" lon="-0.39706">
        <ele>1135.935059</ele>
        <time>2014-10-02T08:52:42Z</time>
      </trkpt>
      <trkpt lat="43.07813" lon="-0.39702">
        <ele>1138.819092</ele>
        <time>2014-10-02T08:52:55Z</time>
      </trkpt>
      <trkpt lat="43.07811" lon="-0.39692">
        <ele>1140.741455</ele>
        <time>2014-10-02T08:53:20Z</time>
      </trkpt>
      <trkpt lat="43.07807" lon="-0.3969">
        <ele>1142.664307</ele>
        <time>2014-10-02T08:53:34Z</time>
      </trkpt>
      <trkpt lat="43.07801" lon="-0.39696">
        <ele>1146.028809</ele>
        <time>2014-10-02T08:53:48Z</time>
      </trkpt>
      <trkpt lat="43.07795" lon="-0.39703">
        <ele>1147.470703</ele>
        <time>2014-10-02T08:54:03Z</time>
      </trkpt>
      <trkpt lat="43.0779" lon="-0.39707">
        <ele>1150.835449</ele>
        <time>2014-10-02T08:54:17Z</time>
      </trkpt>
      <trkpt lat="43.07787" lon="-0.3971">
        <ele>1153.23877</ele>
        <time>2014-10-02T08:54:29Z</time>
      </trkpt>
      <trkpt lat="43.07786" lon="-0.39706">
        <ele>1154.680664</ele>
        <time>2014-10-02T08:54:43Z</time>
      </trkpt>
      <trkpt lat="43.07783" lon="-0.39698">
        <ele>1156.122559</ele>
        <time>2014-10-02T08:54:58Z</time>
      </trkpt>
      <trkpt lat="43.07783" lon="-0.39696">
        <ele>1157.564697</ele>
        <time>2014-10-02T08:55:22Z</time>
      </trkpt>
      <trkpt lat="43.07781" lon="-0.39685">
        <ele>1160.448486</ele>
        <time>2014-10-02T08:55:35Z</time>
      </trkpt>
      <trkpt lat="43.07777" lon="-0.39676">
        <ele>1162.851807</ele>
        <time>2014-10-02T08:55:47Z</time>
      </trkpt>
      <trkpt lat="43.07777" lon="-0.3967">
        <ele>1165.255371</ele>
        <time>2014-10-02T08:55:56Z</time>
      </trkpt>
      <trkpt lat="43.07775" lon="-0.39665">
        <ele>1165.736084</ele>
        <time>2014-10-02T08:56:11Z</time>
      </trkpt>
      <trkpt lat="43.07772" lon="-0.39656">
        <ele>1167.658447</ele>
        <time>2014-10-02T08:56:26Z</time>
      </trkpt>
      <trkpt lat="43.07769" lon="-0.39648">
        <ele>1171.023193</ele>
        <time>2014-10-02T08:56:38Z</time>
      </trkpt>
      <trkpt lat="43.07767" lon="-0.39639">
        <ele>1173.426514</ele>
        <time>2014-10-02T08:56:50Z</time>
      </trkpt>
      <trkpt lat="43.07768" lon="-0.39637">
        <ele>1174.387695</ele>
        <time>2014-10-02T08:57:08Z</time>
      </trkpt>
      <trkpt lat="43.07763" lon="-0.3963">
        <ele>1176.310303</ele>
        <time>2014-10-02T08:57:33Z</time>
      </trkpt>
      <trkpt lat="43.0776" lon="-0.39619">
        <ele>1178.713623</ele>
        <time>2014-10-02T08:57:48Z</time>
      </trkpt>
      <trkpt lat="43.07756" lon="-0.39614">
        <ele>1180.155762</ele>
        <time>2014-10-02T08:58:04Z</time>
      </trkpt>
      <trkpt lat="43.07755" lon="-0.39611">
        <ele>1181.597656</ele>
        <time>2014-10-02T08:58:15Z</time>
      </trkpt>
      <trkpt lat="43.07751" lon="-0.39603">
        <ele>1183.039551</ele>
        <time>2014-10-02T08:58:28Z</time>
      </trkpt>
      <trkpt lat="43.0775" lon="-0.39595">
        <ele>1185.923584</ele>
        <time>2014-10-02T08:58:48Z</time>
      </trkpt>
      <trkpt lat="43.07745" lon="-0.39588">
        <ele>1188.326904</ele>
        <time>2014-10-02T08:59:10Z</time>
      </trkpt>
      <trkpt lat="43.07741" lon="-0.39582">
        <ele>1191.210693</ele>
        <time>2014-10-02T08:59:38Z</time>
      </trkpt>
      <trkpt lat="43.07737" lon="-0.39579">
        <ele>1193.133301</ele>
        <time>2014-10-02T08:59:51Z</time>
      </trkpt>
      <trkpt lat="43.07731" lon="-0.39578">
        <ele>1196.498291</ele>
        <time>2014-10-02T09:00:04Z</time>
      </trkpt>
      <trkpt lat="43.07729" lon="-0.3958">
        <ele>1197.940186</ele>
        <time>2014-10-02T09:00:28Z</time>
      </trkpt>
      <trkpt lat="43.07727" lon="-0.39584">
        <ele>1199.38208</ele>
        <time>2014-10-02T09:00:42Z</time>
      </trkpt>
      <trkpt lat="43.07723" lon="-0.39586">
        <ele>1201.304688</ele>
        <time>2014-10-02T09:00:53Z</time>
      </trkpt>
      <trkpt lat="43.07722" lon="-0.39581">
        <ele>1201.304688</ele>
        <time>2014-10-02T09:01:13Z</time>
      </trkpt>
      <trkpt lat="43.07721" lon="-0.39571">
        <ele>1203.227295</ele>
        <time>2014-10-02T09:01:30Z</time>
      </trkpt>
      <trkpt lat="43.07719" lon="-0.39568">
        <ele>1206.591797</ele>
        <time>2014-10-02T09:01:38Z</time>
      </trkpt>
      <trkpt lat="43.07718" lon="-0.39564">
        <ele>1207.553223</ele>
        <time>2014-10-02T09:01:44Z</time>
      </trkpt>
      <trkpt lat="43.07713" lon="-0.39562">
        <ele>1208.514404</ele>
        <time>2014-10-02T09:02:07Z</time>
      </trkpt>
      <trkpt lat="43.07709" lon="-0.39556">
        <ele>1211.398438</ele>
        <time>2014-10-02T09:02:19Z</time>
      </trkpt>
      <trkpt lat="43.07708" lon="-0.39551">
        <ele>1214.763184</ele>
        <time>2014-10-02T09:02:28Z</time>
      </trkpt>
      <trkpt lat="43.07707" lon="-0.3955">
        <ele>1214.763184</ele>
        <time>2014-10-02T09:02:29Z</time>
      </trkpt>
      <trkpt lat="43.07706" lon="-0.39543">
        <ele>1216.685791</ele>
        <time>2014-10-02T09:03:16Z</time>
      </trkpt>
      <trkpt lat="43.07697" lon="-0.39538">
        <ele>1218.608398</ele>
        <time>2014-10-02T09:03:36Z</time>
      </trkpt>
      <trkpt lat="43.07698" lon="-0.39545">
        <ele>1219.569824</ele>
        <time>2014-10-02T09:04:01Z</time>
      </trkpt>
      <trkpt lat="43.07695" lon="-0.39547">
        <ele>1221.492188</ele>
        <time>2014-10-02T09:04:16Z</time>
      </trkpt>
      <trkpt lat="43.07694" lon="-0.39558">
        <ele>1221.492188</ele>
        <time>2014-10-02T09:04:32Z</time>
      </trkpt>
      <trkpt lat="43.07693" lon="-0.39553">
        <ele>1223.895508</ele>
        <time>2014-10-02T09:04:49Z</time>
      </trkpt>
      <trkpt lat="43.07689" lon="-0.39543">
        <ele>1225.818115</ele>
        <time>2014-10-02T09:05:19Z</time>
      </trkpt>
      <trkpt lat="43.07686" lon="-0.39541">
        <ele>1228.702393</ele>
        <time>2014-10-02T09:05:30Z</time>
      </trkpt>
      <trkpt lat="43.07684" lon="-0.39532">
        <ele>1231.105713</ele>
        <time>2014-10-02T09:05:50Z</time>
      </trkpt>
      <trkpt lat="43.07681" lon="-0.39531">
        <ele>1231.586182</ele>
        <time>2014-10-02T09:06:05Z</time>
      </trkpt>
      <trkpt lat="43.07675" lon="-0.39535">
        <ele>1233.508789</ele>
        <time>2014-10-02T09:06:17Z</time>
      </trkpt>
      <trkpt lat="43.07672" lon="-0.39531">
        <ele>1236.873291</ele>
        <time>2014-10-02T09:06:27Z</time>
      </trkpt>
      <trkpt lat="43.07673" lon="-0.39523">
        <ele>1238.31543</ele>
        <time>2014-10-02T09:06:38Z</time>
      </trkpt>
      <trkpt lat="43.07667" lon="-0.39525">
        <ele>1239.757324</ele>
        <time>2014-10-02T09:06:53Z</time>
      </trkpt>
      <trkpt lat="43.07665" lon="-0.39523">
        <ele>1243.121826</ele>
        <time>2014-10-02T09:07:05Z</time>
      </trkpt>
      <trkpt lat="43.07664" lon="-0.39515">
        <ele>1245.044678</ele>
        <time>2014-10-02T09:07:32Z</time>
      </trkpt>
      <trkpt lat="43.07663" lon="-0.39507">
        <ele>1247.447998</ele>
        <time>2014-10-02T09:08:00Z</time>
      </trkpt>
      <trkpt lat="43.07663" lon="-0.39496">
        <ele>1248.40918</ele>
        <time>2014-10-02T09:08:13Z</time>
      </trkpt>
      <trkpt lat="43.07662" lon="-0.3949">
        <ele>1251.293213</ele>
        <time>2014-10-02T09:08:21Z</time>
      </trkpt>
      <trkpt lat="43.0766" lon="-0.39486">
        <ele>1253.21582</ele>
        <time>2014-10-02T09:08:27Z</time>
      </trkpt>
      <trkpt lat="43.07654" lon="-0.39477">
        <ele>1255.619141</ele>
        <time>2014-10-02T09:08:40Z</time>
      </trkpt>
      <trkpt lat="43.07651" lon="-0.39472">
        <ele>1257.061035</ele>
        <time>2014-10-02T09:08:58Z</time>
      </trkpt>
      <trkpt lat="43.07646" lon="-0.39471">
        <ele>1259.944824</ele>
        <time>2014-10-02T09:09:09Z</time>
      </trkpt>
      <trkpt lat="43.0764" lon="-0.39471">
        <ele>1262.829102</ele>
        <time>2014-10-02T09:09:23Z</time>
      </trkpt>
      <trkpt lat="43.07637" lon="-0.39468">
        <ele>1263.309814</ele>
        <time>2014-10-02T09:09:49Z</time>
      </trkpt>
      <trkpt lat="43.07635" lon="-0.39463">
        <ele>1266.674316</ele>
        <time>2014-10-02T09:09:59Z</time>
      </trkpt>
      <trkpt lat="43.07633" lon="-0.39459">
        <ele>1270.038818</ele>
        <time>2014-10-02T09:10:14Z</time>
      </trkpt>
      <trkpt lat="43.07628" lon="-0.3945">
        <ele>1272.442139</ele>
        <time>2014-10-02T09:10:29Z</time>
      </trkpt>
      <trkpt lat="43.07626" lon="-0.39447">
        <ele>1274.364746</ele>
        <time>2014-10-02T09:10:42Z</time>
      </trkpt>
      <trkpt lat="43.07625" lon="-0.39442">
        <ele>1275.806641</ele>
        <time>2014-10-02T09:11:08Z</time>
      </trkpt>
      <trkpt lat="43.07623" lon="-0.3944">
        <ele>1276.768311</ele>
        <time>2014-10-02T09:11:10Z</time>
      </trkpt>
      <trkpt lat="43.07621" lon="-0.3943">
        <ele>1280.132813</ele>
        <time>2014-10-02T09:11:26Z</time>
      </trkpt>
      <trkpt lat="43.07621" lon="-0.39427">
        <ele>1281.574707</ele>
        <time>2014-10-02T09:11:30Z</time>
      </trkpt>
      <trkpt lat="43.07621" lon="-0.39426">
        <ele>1282.05542</ele>
        <time>2014-10-02T09:11:31Z</time>
      </trkpt>
      <trkpt lat="43.07621" lon="-0.39421">
        <ele>1283.497314</ele>
        <time>2014-10-02T09:11:36Z</time>
      </trkpt>
      <trkpt lat="43.07618" lon="-0.39415">
        <ele>1285.419922</ele>
        <time>2014-10-02T09:11:43Z</time>
      </trkpt>
      <trkpt lat="43.07612" lon="-0.39412">
        <ele>1288.303955</ele>
        <time>2014-10-02T09:11:55Z</time>
      </trkpt>
      <trkpt lat="43.07607" lon="-0.39408">
        <ele>1289.265137</ele>
        <time>2014-10-02T09:12:11Z</time>
      </trkpt>
      <trkpt lat="43.07609" lon="-0.39409">
        <ele>1289.265137</ele>
        <time>2014-10-02T09:12:39Z</time>
      </trkpt>
      <trkpt lat="43.0761" lon="-0.39396">
        <ele>1290.707031</ele>
        <time>2014-10-02T09:12:53Z</time>
      </trkpt>
      <trkpt lat="43.07611" lon="-0.39388">
        <ele>1292.149414</ele>
        <time>2014-10-02T09:13:11Z</time>
      </trkpt>
      <trkpt lat="43.07611" lon="-0.39385">
        <ele>1291.668457</ele>
        <time>2014-10-02T09:13:15Z</time>
      </trkpt>
      <trkpt lat="43.07614" lon="-0.39367">
        <ele>1293.110596</ele>
        <time>2014-10-02T09:13:32Z</time>
      </trkpt>
      <trkpt lat="43.07618" lon="-0.39353">
        <ele>1295.513916</ele>
        <time>2014-10-02T09:13:47Z</time>
      </trkpt>
      <trkpt lat="43.07619" lon="-0.39342">
        <ele>1298.397705</ele>
        <time>2014-10-02T09:14:01Z</time>
      </trkpt>
      <trkpt lat="43.0762" lon="-0.39336">
        <ele>1302.24292</ele>
        <time>2014-10-02T09:14:11Z</time>
      </trkpt>
      <trkpt lat="43.07622" lon="-0.39331">
        <ele>1302.723633</ele>
        <time>2014-10-02T09:14:27Z</time>
      </trkpt>
      <trkpt lat="43.07622" lon="-0.39321">
        <ele>1303.204346</ele>
        <time>2014-10-02T09:14:41Z</time>
      </trkpt>
      <trkpt lat="43.07623" lon="-0.39314">
        <ele>1304.165771</ele>
        <time>2014-10-02T09:14:55Z</time>
      </trkpt>
      <trkpt lat="43.07624" lon="-0.39307">
        <ele>1305.607666</ele>
        <time>2014-10-02T09:15:08Z</time>
      </trkpt>
      <trkpt lat="43.07625" lon="-0.393">
        <ele>1305.607666</ele>
        <time>2014-10-02T09:15:20Z</time>
      </trkpt>
      <trkpt lat="43.0763" lon="-0.39294">
        <ele>1308.972412</ele>
        <time>2014-10-02T09:15:33Z</time>
      </trkpt>
      <trkpt lat="43.07631" lon="-0.39285">
        <ele>1310.89502</ele>
        <time>2014-10-02T09:15:51Z</time>
      </trkpt>
      <trkpt lat="43.07637" lon="-0.3927">
        <ele>1313.29834</ele>
        <time>2014-10-02T09:16:07Z</time>
      </trkpt>
      <trkpt lat="43.0764" lon="-0.3926">
        <ele>1315.220947</ele>
        <time>2014-10-02T09:16:22Z</time>
      </trkpt>
      <trkpt lat="43.07642" lon="-0.3925">
        <ele>1316.182129</ele>
        <time>2014-10-02T09:16:42Z</time>
      </trkpt>
      <trkpt lat="43.07644" lon="-0.39241">
        <ele>1319.066162</ele>
        <time>2014-10-02T09:16:51Z</time>
      </trkpt>
      <trkpt lat="43.07645" lon="-0.39235">
        <ele>1320.98877</ele>
        <time>2014-10-02T09:17:07Z</time>
      </trkpt>
      <trkpt lat="43.07648" lon="-0.39223">
        <ele>1323.39209</ele>
        <time>2014-10-02T09:17:23Z</time>
      </trkpt>
      <trkpt lat="43.07651" lon="-0.39211">
        <ele>1326.756836</ele>
        <time>2014-10-02T09:17:40Z</time>
      </trkpt>
      <trkpt lat="43.07655" lon="-0.39198">
        <ele>1328.19873</ele>
        <time>2014-10-02T09:17:56Z</time>
      </trkpt>
      <trkpt lat="43.07658" lon="-0.3919">
        <ele>1331.563232</ele>
        <time>2014-10-02T09:18:11Z</time>
      </trkpt>
      <trkpt lat="43.0766" lon="-0.3918">
        <ele>1332.524658</ele>
        <time>2014-10-02T09:18:25Z</time>
      </trkpt>
      <trkpt lat="43.0766" lon="-0.39171">
        <ele>1336.850342</ele>
        <time>2014-10-02T09:18:39Z</time>
      </trkpt>
      <trkpt lat="43.07662" lon="-0.39164">
        <ele>1338.29248</ele>
        <time>2014-10-02T09:18:54Z</time>
      </trkpt>
      <trkpt lat="43.07663" lon="-0.39159">
        <ele>1339.734375</ele>
        <time>2014-10-02T09:19:15Z</time>
      </trkpt>
      <trkpt lat="43.07665" lon="-0.39147">
        <ele>1340.215332</ele>
        <time>2014-10-02T09:19:34Z</time>
      </trkpt>
      <trkpt lat="43.07667" lon="-0.39136">
        <ele>1341.176514</ele>
        <time>2014-10-02T09:19:52Z</time>
      </trkpt>
      <trkpt lat="43.07666" lon="-0.39132">
        <ele>1341.657227</ele>
        <time>2014-10-02T09:20:06Z</time>
      </trkpt>
      <trkpt lat="43.07665" lon="-0.39127">
        <ele>1340.695801</ele>
        <time>2014-10-02T09:20:29Z</time>
      </trkpt>
      <trkpt lat="43.07664" lon="-0.39122">
        <ele>1341.657227</ele>
        <time>2014-10-02T09:20:44Z</time>
      </trkpt>
      <trkpt lat="43.07665" lon="-0.39116">
        <ele>1342.618652</ele>
        <time>2014-10-02T09:21:09Z</time>
      </trkpt>
      <trkpt lat="43.07666" lon="-0.3911">
        <ele>1343.099121</ele>
        <time>2014-10-02T09:21:23Z</time>
      </trkpt>
      <trkpt lat="43.07667" lon="-0.391">
        <ele>1344.060547</ele>
        <time>2014-10-02T09:21:40Z</time>
      </trkpt>
      <trkpt lat="43.07667" lon="-0.3909">
        <ele>1345.983154</ele>
        <time>2014-10-02T09:21:59Z</time>
      </trkpt>
      <trkpt lat="43.07667" lon="-0.39081">
        <ele>1346.463867</ele>
        <time>2014-10-02T09:22:14Z</time>
      </trkpt>
      <trkpt lat="43.07668" lon="-0.39071">
        <ele>1347.905762</ele>
        <time>2014-10-02T09:22:32Z</time>
      </trkpt>
      <trkpt lat="43.07668" lon="-0.39067">
        <ele>1348.38623</ele>
        <time>2014-10-02T09:22:54Z</time>
      </trkpt>
      <trkpt lat="43.07667" lon="-0.39067">
        <ele>1347.425049</ele>
        <time>2014-10-02T09:23:16Z</time>
      </trkpt>
      <trkpt lat="43.07665" lon="-0.39081">
        <ele>1345.983154</ele>
        <time>2014-10-02T09:23:35Z</time>
      </trkpt>
      <trkpt lat="43.07663" lon="-0.39095">
        <ele>1345.021729</ele>
        <time>2014-10-02T09:23:57Z</time>
      </trkpt>
      <trkpt lat="43.07663" lon="-0.39111">
        <ele>1343.579834</ele>
        <time>2014-10-02T09:24:13Z</time>
      </trkpt>
      <trkpt lat="43.07659" lon="-0.39127">
        <ele>1342.618652</ele>
        <time>2014-10-02T09:24:29Z</time>
      </trkpt>
      <trkpt lat="43.07661" lon="-0.39132">
        <ele>1342.618652</ele>
        <time>2014-10-02T09:24:47Z</time>
      </trkpt>
      <trkpt lat="43.07663" lon="-0.39143">
        <ele>1341.176514</ele>
        <time>2014-10-02T09:25:02Z</time>
      </trkpt>
      <trkpt lat="43.07662" lon="-0.39152">
        <ele>1340.215332</ele>
        <time>2014-10-02T09:25:21Z</time>
      </trkpt>
      <trkpt lat="43.0766" lon="-0.39161">
        <ele>1339.734375</ele>
        <time>2014-10-02T09:25:38Z</time>
      </trkpt>
      <trkpt lat="43.07658" lon="-0.39166">
        <ele>1338.29248</ele>
        <time>2014-10-02T09:25:56Z</time>
      </trkpt>
      <trkpt lat="43.07655" lon="-0.39171">
        <ele>1336.850342</ele>
        <time>2014-10-02T09:26:10Z</time>
      </trkpt>
      <trkpt lat="43.07655" lon="-0.3918">
        <ele>1335.408447</ele>
        <time>2014-10-02T09:26:28Z</time>
      </trkpt>
      <trkpt lat="43.07654" lon="-0.39188">
        <ele>1333.966553</ele>
        <time>2014-10-02T09:26:43Z</time>
      </trkpt>
      <trkpt lat="43.07653" lon="-0.39194">
        <ele>1331.563232</ele>
        <time>2014-10-02T09:27:04Z</time>
      </trkpt>
      <trkpt lat="43.07649" lon="-0.39207">
        <ele>1329.640625</ele>
        <time>2014-10-02T09:27:21Z</time>
      </trkpt>
      <trkpt lat="43.07648" lon="-0.39211">
        <ele>1328.679443</ele>
        <time>2014-10-02T09:27:40Z</time>
      </trkpt>
      <trkpt lat="43.07646" lon="-0.39217">
        <ele>1327.237549</ele>
        <time>2014-10-02T09:27:55Z</time>
      </trkpt>
      <trkpt lat="43.07645" lon="-0.39224">
        <ele>1325.314697</ele>
        <time>2014-10-02T09:28:10Z</time>
      </trkpt>
      <trkpt lat="43.07641" lon="-0.39229">
        <ele>1323.872559</ele>
        <time>2014-10-02T09:28:26Z</time>
      </trkpt>
      <trkpt lat="43.07641" lon="-0.39228">
        <ele>1323.872559</ele>
        <time>2014-10-02T09:28:31Z</time>
      </trkpt>
      <trkpt lat="43.0764" lon="-0.3923">
        <ele>1322.430664</ele>
        <time>2014-10-02T09:28:48Z</time>
      </trkpt>
      <trkpt lat="43.0764" lon="-0.39228">
        <ele>1323.39209</ele>
        <time>2014-10-02T09:32:52Z</time>
      </trkpt>
      <trkpt lat="43.07641" lon="-0.39229">
        <ele>1323.39209</ele>
        <time>2014-10-02T09:36:40Z</time>
      </trkpt>
      <trkpt lat="43.07641" lon="-0.39229">
        <ele>1323.872559</ele>
        <time>2014-10-02T09:39:34Z</time>
      </trkpt>
      <trkpt lat="43.07641" lon="-0.39231">
        <ele>1323.872559</ele>
        <time>2014-10-02T09:41:02Z</time>
      </trkpt>
      <trkpt lat="43.07641" lon="-0.39229">
        <ele>1324.353516</ele>
        <time>2014-10-02T09:43:32Z</time>
      </trkpt>
      <trkpt lat="43.07641" lon="-0.39229">
        <ele>1325.314697</ele>
        <time>2014-10-02T10:02:38Z</time>
      </trkpt>
      <trkpt lat="43.0764" lon="-0.3923">
        <ele>1325.314697</ele>
        <time>2014-10-02T10:03:41Z</time>
      </trkpt>
      <trkpt lat="43.07642" lon="-0.39229">
        <ele>1325.79541</ele>
        <time>2014-10-02T10:04:27Z</time>
      </trkpt>
      <trkpt lat="43.07643" lon="-0.3923">
        <ele>1327.237549</ele>
        <time>2014-10-02T10:08:54Z</time>
      </trkpt>
      <trkpt lat="43.07643" lon="-0.3923">
        <ele>1326.756836</ele>
        <time>2014-10-02T10:09:17Z</time>
      </trkpt>
      <trkpt lat="43.07644" lon="-0.39233">
        <ele>1326.756836</ele>
        <time>2014-10-02T10:09:33Z</time>
      </trkpt>
      <trkpt lat="43.07642" lon="-0.3924">
        <ele>1324.353516</ele>
        <time>2014-10-02T10:09:51Z</time>
      </trkpt>
      <trkpt lat="43.07639" lon="-0.39252">
        <ele>1320.98877</ele>
        <time>2014-10-02T10:10:09Z</time>
      </trkpt>
      <trkpt lat="43.07637" lon="-0.39262">
        <ele>1319.066162</ele>
        <time>2014-10-02T10:10:27Z</time>
      </trkpt>
      <trkpt lat="43.07632" lon="-0.39276">
        <ele>1316.662842</ele>
        <time>2014-10-02T10:10:45Z</time>
      </trkpt>
      <trkpt lat="43.07629" lon="-0.39285">
        <ele>1315.220947</ele>
        <time>2014-10-02T10:11:02Z</time>
      </trkpt>
      <trkpt lat="43.07626" lon="-0.39294">
        <ele>1314.259521</ele>
        <time>2014-10-02T10:11:17Z</time>
      </trkpt>
      <trkpt lat="43.07624" lon="-0.39299">
        <ele>1310.89502</ele>
        <time>2014-10-02T10:11:28Z</time>
      </trkpt>
      <trkpt lat="43.07623" lon="-0.39299">
        <ele>1310.89502</ele>
        <time>2014-10-02T10:11:29Z</time>
      </trkpt>
      <trkpt lat="43.07624" lon="-0.39301">
        <ele>1311.856445</ele>
        <time>2014-10-02T10:11:49Z</time>
      </trkpt>
      <trkpt lat="43.07621" lon="-0.39307">
        <ele>1309.933594</ele>
        <time>2014-10-02T10:12:11Z</time>
      </trkpt>
      <trkpt lat="43.0762" lon="-0.39314">
        <ele>1308.972412</ele>
        <time>2014-10-02T10:12:26Z</time>
      </trkpt>
      <trkpt lat="43.07619" lon="-0.39324">
        <ele>1308.01123</ele>
        <time>2014-10-02T10:12:40Z</time>
      </trkpt>
      <trkpt lat="43.07619" lon="-0.3933">
        <ele>1308.01123</ele>
        <time>2014-10-02T10:12:52Z</time>
      </trkpt>
      <trkpt lat="43.07618" lon="-0.39335">
        <ele>1307.049561</ele>
        <time>2014-10-02T10:13:15Z</time>
      </trkpt>
      <trkpt lat="43.07617" lon="-0.39339">
        <ele>1304.64624</ele>
        <time>2014-10-02T10:13:36Z</time>
      </trkpt>
      <trkpt lat="43.07616" lon="-0.39343">
        <ele>1303.685059</ele>
        <time>2014-10-02T10:13:53Z</time>
      </trkpt>
      <trkpt lat="43.07616" lon="-0.39351">
        <ele>1301.762451</ele>
        <time>2014-10-02T10:14:09Z</time>
      </trkpt>
      <trkpt lat="43.07614" lon="-0.39361">
        <ele>1298.878418</ele>
        <time>2014-10-02T10:14:25Z</time>
      </trkpt>
      <trkpt lat="43.07609" lon="-0.39374">
        <ele>1297.436523</ele>
        <time>2014-10-02T10:14:41Z</time>
      </trkpt>
      <trkpt lat="43.07608" lon="-0.39378">
        <ele>1297.436523</ele>
        <time>2014-10-02T10:14:46Z</time>
      </trkpt>
      <trkpt lat="43.07605" lon="-0.39392">
        <ele>1297.436523</ele>
        <time>2014-10-02T10:15:02Z</time>
      </trkpt>
      <trkpt lat="43.07603" lon="-0.39403">
        <ele>1295.994629</ele>
        <time>2014-10-02T10:15:21Z</time>
      </trkpt>
      <trkpt lat="43.07607" lon="-0.39413">
        <ele>1293.591309</ele>
        <time>2014-10-02T10:15:39Z</time>
      </trkpt>
      <trkpt lat="43.07612" lon="-0.39415">
        <ele>1291.668457</ele>
        <time>2014-10-02T10:15:48Z</time>
      </trkpt>
      <trkpt lat="43.07617" lon="-0.39418">
        <ele>1288.784668</ele>
        <time>2014-10-02T10:16:03Z</time>
      </trkpt>
      <trkpt lat="43.07619" lon="-0.39426">
        <ele>1285.900635</ele>
        <time>2014-10-02T10:16:14Z</time>
      </trkpt>
      <trkpt lat="43.07623" lon="-0.39442">
        <ele>1282.536133</ele>
        <time>2014-10-02T10:16:33Z</time>
      </trkpt>
      <trkpt lat="43.07626" lon="-0.3945">
        <ele>1279.6521</ele>
        <time>2014-10-02T10:16:45Z</time>
      </trkpt>
      <trkpt lat="43.07629" lon="-0.39461">
        <ele>1277.729492</ele>
        <time>2014-10-02T10:17:01Z</time>
      </trkpt>
      <trkpt lat="43.07632" lon="-0.39467">
        <ele>1274.364746</ele>
        <time>2014-10-02T10:17:19Z</time>
      </trkpt>
      <trkpt lat="43.07637" lon="-0.39465">
        <ele>1272.922852</ele>
        <time>2014-10-02T10:17:33Z</time>
      </trkpt>
      <trkpt lat="43.07642" lon="-0.39472">
        <ele>1270.038818</ele>
        <time>2014-10-02T10:17:47Z</time>
      </trkpt>
      <trkpt lat="43.07642" lon="-0.39476">
        <ele>1268.116211</ele>
        <time>2014-10-02T10:18:18Z</time>
      </trkpt>
      <trkpt lat="43.07642" lon="-0.39476">
        <ele>1267.635498</ele>
        <time>2014-10-02T10:18:19Z</time>
      </trkpt>
      <trkpt lat="43.07647" lon="-0.39475">
        <ele>1265.713135</ele>
        <time>2014-10-02T10:18:34Z</time>
      </trkpt>
      <trkpt lat="43.07651" lon="-0.39475">
        <ele>1263.309814</ele>
        <time>2014-10-02T10:18:48Z</time>
      </trkpt>
      <trkpt lat="43.07655" lon="-0.39473">
        <ele>1260.906494</ele>
        <time>2014-10-02T10:19:01Z</time>
      </trkpt>
      <trkpt lat="43.07657" lon="-0.39481">
        <ele>1258.983643</ele>
        <time>2014-10-02T10:19:17Z</time>
      </trkpt>
      <trkpt lat="43.0766" lon="-0.39489">
        <ele>1255.619141</ele>
        <time>2014-10-02T10:19:29Z</time>
      </trkpt>
      <trkpt lat="43.07663" lon="-0.395">
        <ele>1252.735107</ele>
        <time>2014-10-02T10:19:43Z</time>
      </trkpt>
      <trkpt lat="43.07664" lon="-0.39502">
        <ele>1251.293213</ele>
        <time>2014-10-02T10:19:46Z</time>
      </trkpt>
      <trkpt lat="43.07665" lon="-0.39509">
        <ele>1250.8125</ele>
        <time>2014-10-02T10:20:03Z</time>
      </trkpt>
      <trkpt lat="43.07667" lon="-0.39516">
        <ele>1249.370605</ele>
        <time>2014-10-02T10:20:20Z</time>
      </trkpt>
      <trkpt lat="43.07667" lon="-0.39521">
        <ele>1247.928711</ele>
        <time>2014-10-02T10:20:50Z</time>
      </trkpt>
      <trkpt lat="43.07671" lon="-0.39521">
        <ele>1245.525391</ele>
        <time>2014-10-02T10:21:04Z</time>
      </trkpt>
      <trkpt lat="43.07672" lon="-0.3952">
        <ele>1244.083496</ele>
        <time>2014-10-02T10:21:21Z</time>
      </trkpt>
      <trkpt lat="43.07674" lon="-0.39528">
        <ele>1243.121826</ele>
        <time>2014-10-02T10:21:37Z</time>
      </trkpt>
      <trkpt lat="43.07676" lon="-0.39535">
        <ele>1242.641357</ele>
        <time>2014-10-02T10:21:56Z</time>
      </trkpt>
      <trkpt lat="43.0768" lon="-0.39536">
        <ele>1238.796143</ele>
        <time>2014-10-02T10:22:09Z</time>
      </trkpt>
      <trkpt lat="43.07683" lon="-0.3953">
        <ele>1236.873291</ele>
        <time>2014-10-02T10:22:20Z</time>
      </trkpt>
      <trkpt lat="43.07687" lon="-0.39525">
        <ele>1234.950928</ele>
        <time>2014-10-02T10:22:37Z</time>
      </trkpt>
      <trkpt lat="43.0769" lon="-0.39531">
        <ele>1232.066895</ele>
        <time>2014-10-02T10:23:00Z</time>
      </trkpt>
      <trkpt lat="43.07693" lon="-0.39535">
        <ele>1229.182861</ele>
        <time>2014-10-02T10:23:10Z</time>
      </trkpt>
      <trkpt lat="43.07695" lon="-0.39536">
        <ele>1227.260254</ele>
        <time>2014-10-02T10:23:17Z</time>
      </trkpt>
      <trkpt lat="43.07697" lon="-0.39539">
        <ele>1225.818115</ele>
        <time>2014-10-02T10:23:33Z</time>
      </trkpt>
      <trkpt lat="43.07701" lon="-0.39543">
        <ele>1223.415039</ele>
        <time>2014-10-02T10:23:47Z</time>
      </trkpt>
      <trkpt lat="43.07703" lon="-0.39554">
        <ele>1221.492188</ele>
        <time>2014-10-02T10:24:03Z</time>
      </trkpt>
      <trkpt lat="43.07707" lon="-0.39549">
        <ele>1219.569824</ele>
        <time>2014-10-02T10:24:19Z</time>
      </trkpt>
      <trkpt lat="43.0771" lon="-0.39557">
        <ele>1217.166504</ele>
        <time>2014-10-02T10:24:34Z</time>
      </trkpt>
      <trkpt lat="43.07712" lon="-0.3956">
        <ele>1216.205078</ele>
        <time>2014-10-02T10:24:50Z</time>
      </trkpt>
      <trkpt lat="43.07716" lon="-0.39567">
        <ele>1212.840576</ele>
        <time>2014-10-02T10:25:12Z</time>
      </trkpt>
      <trkpt lat="43.07719" lon="-0.39567">
        <ele>1209.956299</ele>
        <time>2014-10-02T10:25:25Z</time>
      </trkpt>
      <trkpt lat="43.07721" lon="-0.39572">
        <ele>1208.995117</ele>
        <time>2014-10-02T10:25:43Z</time>
      </trkpt>
      <trkpt lat="43.07723" lon="-0.39584">
        <ele>1207.07251</ele>
        <time>2014-10-02T10:26:00Z</time>
      </trkpt>
      <trkpt lat="43.07727" lon="-0.39587">
        <ele>1204.669189</ele>
        <time>2014-10-02T10:26:11Z</time>
      </trkpt>
      <trkpt lat="43.0773" lon="-0.39583">
        <ele>1202.746582</ele>
        <time>2014-10-02T10:26:25Z</time>
      </trkpt>
      <trkpt lat="43.07731" lon="-0.39581">
        <ele>1201.7854</ele>
        <time>2014-10-02T10:26:29Z</time>
      </trkpt>
      <trkpt lat="43.07734" lon="-0.39582">
        <ele>1199.38208</ele>
        <time>2014-10-02T10:26:45Z</time>
      </trkpt>
      <trkpt lat="43.0774" lon="-0.39585">
        <ele>1196.498291</ele>
        <time>2014-10-02T10:27:01Z</time>
      </trkpt>
      <trkpt lat="43.07745" lon="-0.39589">
        <ele>1193.614014</ele>
        <time>2014-10-02T10:27:13Z</time>
      </trkpt>
      <trkpt lat="43.07749" lon="-0.39594">
        <ele>1190.249512</ele>
        <time>2014-10-02T10:27:28Z</time>
      </trkpt>
      <trkpt lat="43.0775" lon="-0.39606">
        <ele>1187.365479</ele>
        <time>2014-10-02T10:27:50Z</time>
      </trkpt>
      <trkpt lat="43.07754" lon="-0.39611">
        <ele>1184.000977</ele>
        <time>2014-10-02T10:28:06Z</time>
      </trkpt>
      <trkpt lat="43.07759" lon="-0.39623">
        <ele>1182.078369</ele>
        <time>2014-10-02T10:28:26Z</time>
      </trkpt>
      <trkpt lat="43.07761" lon="-0.39633">
        <ele>1179.194092</ele>
        <time>2014-10-02T10:28:41Z</time>
      </trkpt>
      <trkpt lat="43.07764" lon="-0.39637">
        <ele>1175.82959</ele>
        <time>2014-10-02T10:28:53Z</time>
      </trkpt>
      <trkpt lat="43.0777" lon="-0.39651">
        <ele>1172.465088</ele>
        <time>2014-10-02T10:29:12Z</time>
      </trkpt>
      <trkpt lat="43.07773" lon="-0.39661">
        <ele>1170.54248</ele>
        <time>2014-10-02T10:29:29Z</time>
      </trkpt>
      <trkpt lat="43.07776" lon="-0.39671">
        <ele>1167.177979</ele>
        <time>2014-10-02T10:29:51Z</time>
      </trkpt>
      <trkpt lat="43.07779" lon="-0.39682">
        <ele>1163.812988</ele>
        <time>2014-10-02T10:30:05Z</time>
      </trkpt>
      <trkpt lat="43.07781" lon="-0.3969">
        <ele>1161.890625</ele>
        <time>2014-10-02T10:30:23Z</time>
      </trkpt>
      <trkpt lat="43.0778" lon="-0.39698">
        <ele>1160.929199</ele>
        <time>2014-10-02T10:30:37Z</time>
      </trkpt>
      <trkpt lat="43.07781" lon="-0.39705">
        <ele>1159.006592</ele>
        <time>2014-10-02T10:31:01Z</time>
      </trkpt>
      <trkpt lat="43.07784" lon="-0.39712">
        <ele>1156.122559</ele>
        <time>2014-10-02T10:31:15Z</time>
      </trkpt>
      <trkpt lat="43.07786" lon="-0.39709">
        <ele>1155.64209</ele>
        <time>2014-10-02T10:31:23Z</time>
      </trkpt>
      <trkpt lat="43.07792" lon="-0.39706">
        <ele>1152.277344</ele>
        <time>2014-10-02T10:31:37Z</time>
      </trkpt>
      <trkpt lat="43.07797" lon="-0.39701">
        <ele>1150.35498</ele>
        <time>2014-10-02T10:31:50Z</time>
      </trkpt>
      <trkpt lat="43.07805" lon="-0.39693">
        <ele>1146.509521</ele>
        <time>2014-10-02T10:32:13Z</time>
      </trkpt>
      <trkpt lat="43.0781" lon="-0.39693">
        <ele>1144.58667</ele>
        <time>2014-10-02T10:32:29Z</time>
      </trkpt>
      <trkpt lat="43.07812" lon="-0.39709">
        <ele>1142.664307</ele>
        <time>2014-10-02T10:32:45Z</time>
      </trkpt>
      <trkpt lat="43.07814" lon="-0.39716">
        <ele>1139.299561</ele>
        <time>2014-10-02T10:32:57Z</time>
      </trkpt>
      <trkpt lat="43.07816" lon="-0.39723">
        <ele>1138.338379</ele>
        <time>2014-10-02T10:33:11Z</time>
      </trkpt>
      <trkpt lat="43.07822" lon="-0.39724">
        <ele>1134.973877</ele>
        <time>2014-10-02T10:33:27Z</time>
      </trkpt>
      <trkpt lat="43.07828" lon="-0.39724">
        <ele>1132.570557</ele>
        <time>2014-10-02T10:33:43Z</time>
      </trkpt>
      <trkpt lat="43.07834" lon="-0.39721">
        <ele>1129.205566</ele>
        <time>2014-10-02T10:33:55Z</time>
      </trkpt>
      <trkpt lat="43.07834" lon="-0.39727">
        <ele>1127.283203</ele>
        <time>2014-10-02T10:34:05Z</time>
      </trkpt>
      <trkpt lat="43.07831" lon="-0.3974">
        <ele>1125.360352</ele>
        <time>2014-10-02T10:34:20Z</time>
      </trkpt>
      <trkpt lat="43.07835" lon="-0.39743">
        <ele>1123.437988</ele>
        <time>2014-10-02T10:34:33Z</time>
      </trkpt>
      <trkpt lat="43.0784" lon="-0.39753">
        <ele>1121.034668</ele>
        <time>2014-10-02T10:34:58Z</time>
      </trkpt>
      <trkpt lat="43.07843" lon="-0.39753">
        <ele>1117.669922</ele>
        <time>2014-10-02T10:35:11Z</time>
      </trkpt>
      <trkpt lat="43.07849" lon="-0.39753">
        <ele>1113.824463</ele>
        <time>2014-10-02T10:35:29Z</time>
      </trkpt>
      <trkpt lat="43.0785" lon="-0.39761">
        <ele>1112.863281</ele>
        <time>2014-10-02T10:35:46Z</time>
      </trkpt>
      <trkpt lat="43.07855" lon="-0.39765">
        <ele>1109.979248</ele>
        <time>2014-10-02T10:36:03Z</time>
      </trkpt>
      <trkpt lat="43.07858" lon="-0.39771">
        <ele>1106.134033</ele>
        <time>2014-10-02T10:36:17Z</time>
      </trkpt>
      <trkpt lat="43.07858" lon="-0.3977">
        <ele>1104.692139</ele>
        <time>2014-10-02T10:36:41Z</time>
      </trkpt>
      <trkpt lat="43.07862" lon="-0.39774">
        <ele>1102.769531</ele>
        <time>2014-10-02T10:36:55Z</time>
      </trkpt>
      <trkpt lat="43.07864" lon="-0.39784">
        <ele>1099.404785</ele>
        <time>2014-10-02T10:37:10Z</time>
      </trkpt>
      <trkpt lat="43.07867" lon="-0.39785">
        <ele>1098.924072</ele>
        <time>2014-10-02T10:37:15Z</time>
      </trkpt>
      <trkpt lat="43.07877" lon="-0.39774">
        <ele>1096.520996</ele>
        <time>2014-10-02T10:37:34Z</time>
      </trkpt>
      <trkpt lat="43.07883" lon="-0.39769">
        <ele>1093.15625</ele>
        <time>2014-10-02T10:37:47Z</time>
      </trkpt>
      <trkpt lat="43.0789" lon="-0.39763">
        <ele>1090.272461</ele>
        <time>2014-10-02T10:38:00Z</time>
      </trkpt>
      <trkpt lat="43.07895" lon="-0.39756">
        <ele>1087.869141</ele>
        <time>2014-10-02T10:38:16Z</time>
      </trkpt>
      <trkpt lat="43.07902" lon="-0.39743">
        <ele>1084.504639</ele>
        <time>2014-10-02T10:38:31Z</time>
      </trkpt>
      <trkpt lat="43.07906" lon="-0.39738">
        <ele>1084.023926</ele>
        <time>2014-10-02T10:38:36Z</time>
      </trkpt>
      <trkpt lat="43.07909" lon="-0.39727">
        <ele>1081.139893</ele>
        <time>2014-10-02T10:38:47Z</time>
      </trkpt>
      <trkpt lat="43.07911" lon="-0.39717">
        <ele>1078.255859</ele>
        <time>2014-10-02T10:39:00Z</time>
      </trkpt>
      <trkpt lat="43.07914" lon="-0.39722">
        <ele>1077.775146</ele>
        <time>2014-10-02T10:39:13Z</time>
      </trkpt>
      <trkpt lat="43.07922" lon="-0.39731">
        <ele>1074.410645</ele>
        <time>2014-10-02T10:39:30Z</time>
      </trkpt>
      <trkpt lat="43.07925" lon="-0.39738">
        <ele>1072.007324</ele>
        <time>2014-10-02T10:39:38Z</time>
      </trkpt>
      <trkpt lat="43.07924" lon="-0.3975">
        <ele>1070.56543</ele>
        <time>2014-10-02T10:39:50Z</time>
      </trkpt>
      <trkpt lat="43.07923" lon="-0.39763">
        <ele>1068.162109</ele>
        <time>2014-10-02T10:40:08Z</time>
      </trkpt>
      <trkpt lat="43.07928" lon="-0.3977">
        <ele>1065.758789</ele>
        <time>2014-10-02T10:40:24Z</time>
      </trkpt>
      <trkpt lat="43.07936" lon="-0.39761">
        <ele>1063.355469</ele>
        <time>2014-10-02T10:40:39Z</time>
      </trkpt>
      <trkpt lat="43.07939" lon="-0.39771">
        <ele>1060.471436</ele>
        <time>2014-10-02T10:40:54Z</time>
      </trkpt>
      <trkpt lat="43.07941" lon="-0.39781">
        <ele>1058.548828</ele>
        <time>2014-10-02T10:41:06Z</time>
      </trkpt>
      <trkpt lat="43.07937" lon="-0.3979">
        <ele>1056.626221</ele>
        <time>2014-10-02T10:41:21Z</time>
      </trkpt>
      <trkpt lat="43.07937" lon="-0.398">
        <ele>1054.703613</ele>
        <time>2014-10-02T10:41:36Z</time>
      </trkpt>
      <trkpt lat="43.07935" lon="-0.39812">
        <ele>1053.261719</ele>
        <time>2014-10-02T10:41:51Z</time>
      </trkpt>
      <trkpt lat="43.07939" lon="-0.39814">
        <ele>1050.858154</ele>
        <time>2014-10-02T10:42:04Z</time>
      </trkpt>
      <trkpt lat="43.07945" lon="-0.39807">
        <ele>1047.974365</ele>
        <time>2014-10-02T10:42:19Z</time>
      </trkpt>
      <trkpt lat="43.07953" lon="-0.39801">
        <ele>1045.090332</ele>
        <time>2014-10-02T10:42:32Z</time>
      </trkpt>
      <trkpt lat="43.07953" lon="-0.39809">
        <ele>1043.167725</ele>
        <time>2014-10-02T10:42:44Z</time>
      </trkpt>
      <trkpt lat="43.07951" lon="-0.3982">
        <ele>1040.764404</ele>
        <time>2014-10-02T10:42:56Z</time>
      </trkpt>
      <trkpt lat="43.07949" lon="-0.39825">
        <ele>1039.32251</ele>
        <time>2014-10-02T10:43:01Z</time>
      </trkpt>
      <trkpt lat="43.07955" lon="-0.39826">
        <ele>1038.361328</ele>
        <time>2014-10-02T10:43:11Z</time>
      </trkpt>
      <trkpt lat="43.07966" lon="-0.39826">
        <ele>1036.919189</ele>
        <time>2014-10-02T10:43:24Z</time>
      </trkpt>
      <trkpt lat="43.07964" lon="-0.39837">
        <ele>1033.554443</ele>
        <time>2014-10-02T10:43:37Z</time>
      </trkpt>
      <trkpt lat="43.07966" lon="-0.39844">
        <ele>1032.112549</ele>
        <time>2014-10-02T10:43:51Z</time>
      </trkpt>
      <trkpt lat="43.07967" lon="-0.39844">
        <ele>1031.631836</ele>
        <time>2014-10-02T10:43:52Z</time>
      </trkpt>
      <trkpt lat="43.07972" lon="-0.39836">
        <ele>1029.709229</ele>
        <time>2014-10-02T10:44:02Z</time>
      </trkpt>
      <trkpt lat="43.07977" lon="-0.39831">
        <ele>1027.306152</ele>
        <time>2014-10-02T10:44:17Z</time>
      </trkpt>
      <trkpt lat="43.07979" lon="-0.3984">
        <ele>1024.422119</ele>
        <time>2014-10-02T10:44:32Z</time>
      </trkpt>
      <trkpt lat="43.07988" lon="-0.3983">
        <ele>1020.576904</ele>
        <time>2014-10-02T10:44:44Z</time>
      </trkpt>
      <trkpt lat="43.07994" lon="-0.3982">
        <ele>1018.654053</ele>
        <time>2014-10-02T10:44:56Z</time>
      </trkpt>
      <trkpt lat="43.07993" lon="-0.39807">
        <ele>1018.17334</ele>
        <time>2014-10-02T10:45:08Z</time>
      </trkpt>
      <trkpt lat="43.08" lon="-0.39797">
        <ele>1015.289551</ele>
        <time>2014-10-02T10:45:20Z</time>
      </trkpt>
      <trkpt lat="43.08007" lon="-0.39785">
        <ele>1012.405518</ele>
        <time>2014-10-02T10:45:32Z</time>
      </trkpt>
      <trkpt lat="43.0801" lon="-0.39776">
        <ele>1010.48291</ele>
        <time>2014-10-02T10:45:41Z</time>
      </trkpt>
      <trkpt lat="43.0801" lon="-0.39777">
        <ele>1008.560303</ele>
        <time>2014-10-02T10:45:53Z</time>
      </trkpt>
      <trkpt lat="43.08014" lon="-0.39775">
        <ele>1005.676514</ele>
        <time>2014-10-02T10:46:05Z</time>
      </trkpt>
      <trkpt lat="43.08023" lon="-0.39765">
        <ele>1004.715088</ele>
        <time>2014-10-02T10:46:19Z</time>
      </trkpt>
      <trkpt lat="43.08023" lon="-0.39764">
        <ele>1003.753662</ele>
        <time>2014-10-02T10:46:20Z</time>
      </trkpt>
      <trkpt lat="43.08025" lon="-0.39752">
        <ele>1001.350342</ele>
        <time>2014-10-02T10:46:30Z</time>
      </trkpt>
      <trkpt lat="43.08016" lon="-0.39735">
        <ele>1000.869629</ele>
        <time>2014-10-02T10:46:43Z</time>
      </trkpt>
      <trkpt lat="43.08013" lon="-0.39729">
        <ele>997.505127</ele>
        <time>2014-10-02T10:46:49Z</time>
      </trkpt>
      <trkpt lat="43.08017" lon="-0.39721">
        <ele>996.063232</ele>
        <time>2014-10-02T10:47:01Z</time>
      </trkpt>
      <trkpt lat="43.08017" lon="-0.39728">
        <ele>994.140625</ele>
        <time>2014-10-02T10:47:10Z</time>
      </trkpt>
      <trkpt lat="43.08018" lon="-0.39721">
        <ele>990.29541</ele>
        <time>2014-10-02T10:47:20Z</time>
      </trkpt>
      <trkpt lat="43.08019" lon="-0.39712">
        <ele>989.814697</ele>
        <time>2014-10-02T10:47:29Z</time>
      </trkpt>
      <trkpt lat="43.0802" lon="-0.39697">
        <ele>988.372803</ele>
        <time>2014-10-02T10:47:42Z</time>
      </trkpt>
      <trkpt lat="43.08022" lon="-0.39686">
        <ele>985.969238</ele>
        <time>2014-10-02T10:47:55Z</time>
      </trkpt>
      <trkpt lat="43.08029" lon="-0.39668">
        <ele>984.527344</ele>
        <time>2014-10-02T10:48:09Z</time>
      </trkpt>
      <trkpt lat="43.08032" lon="-0.39656">
        <ele>983.085205</ele>
        <time>2014-10-02T10:48:22Z</time>
      </trkpt>
      <trkpt lat="43.08033" lon="-0.3964">
        <ele>981.643311</ele>
        <time>2014-10-02T10:48:36Z</time>
      </trkpt>
      <trkpt lat="43.08039" lon="-0.39624">
        <ele>978.278809</ele>
        <time>2014-10-02T10:48:49Z</time>
      </trkpt>
      <trkpt lat="43.08046" lon="-0.39611">
        <ele>977.798096</ele>
        <time>2014-10-02T10:48:59Z</time>
      </trkpt>
      <trkpt lat="43.08051" lon="-0.39601">
        <ele>977.317627</ele>
        <time>2014-10-02T10:49:07Z</time>
      </trkpt>
      <trkpt lat="43.08058" lon="-0.39595">
        <ele>976.356201</ele>
        <time>2014-10-02T10:49:12Z</time>
      </trkpt>
      <trkpt lat="43.08061" lon="-0.39592">
        <ele>975.394775</ele>
        <time>2014-10-02T10:49:17Z</time>
      </trkpt>
      <trkpt lat="43.0807" lon="-0.39572">
        <ele>973.472412</ele>
        <time>2014-10-02T10:49:33Z</time>
      </trkpt>
      <trkpt lat="43.08079" lon="-0.39556">
        <ele>971.549316</ele>
        <time>2014-10-02T10:49:46Z</time>
      </trkpt>
      <trkpt lat="43.08078" lon="-0.39543">
        <ele>969.626953</ele>
        <time>2014-10-02T10:49:59Z</time>
      </trkpt>
      <trkpt lat="43.08081" lon="-0.39534">
        <ele>967.704102</ele>
        <time>2014-10-02T10:50:10Z</time>
      </trkpt>
      <trkpt lat="43.08091" lon="-0.39522">
        <ele>966.262207</ele>
        <time>2014-10-02T10:50:23Z</time>
      </trkpt>
      <trkpt lat="43.08099" lon="-0.39511">
        <ele>963.858887</ele>
        <time>2014-10-02T10:50:34Z</time>
      </trkpt>
      <trkpt lat="43.08108" lon="-0.395">
        <ele>961.455811</ele>
        <time>2014-10-02T10:50:50Z</time>
      </trkpt>
      <trkpt lat="43.08112" lon="-0.39488">
        <ele>959.533203</ele>
        <time>2014-10-02T10:51:06Z</time>
      </trkpt>
      <trkpt lat="43.08117" lon="-0.39482">
        <ele>956.64917</ele>
        <time>2014-10-02T10:51:17Z</time>
      </trkpt>
      <trkpt lat="43.08122" lon="-0.39476">
        <ele>953.765137</ele>
        <time>2014-10-02T10:51:29Z</time>
      </trkpt>
      <trkpt lat="43.08129" lon="-0.39465">
        <ele>950.881104</ele>
        <time>2014-10-02T10:51:44Z</time>
      </trkpt>
      <trkpt lat="43.08137" lon="-0.39449">
        <ele>949.919922</ele>
        <time>2014-10-02T10:52:00Z</time>
      </trkpt>
      <trkpt lat="43.08141" lon="-0.3944">
        <ele>948.477783</ele>
        <time>2014-10-02T10:52:08Z</time>
      </trkpt>
      <trkpt lat="43.08144" lon="-0.39432">
        <ele>947.516602</ele>
        <time>2014-10-02T10:52:14Z</time>
      </trkpt>
      <trkpt lat="43.08152" lon="-0.3942">
        <ele>945.593994</ele>
        <time>2014-10-02T10:52:25Z</time>
      </trkpt>
      <trkpt lat="43.08157" lon="-0.39413">
        <ele>943.190674</ele>
        <time>2014-10-02T10:52:37Z</time>
      </trkpt>
      <trkpt lat="43.08154" lon="-0.39422">
        <ele>941.748779</ele>
        <time>2014-10-02T10:52:48Z</time>
      </trkpt>
      <trkpt lat="43.08152" lon="-0.39431">
        <ele>938.864746</ele>
        <time>2014-10-02T10:52:59Z</time>
      </trkpt>
      <trkpt lat="43.08162" lon="-0.39424">
        <ele>936.941895</ele>
        <time>2014-10-02T10:53:10Z</time>
      </trkpt>
      <trkpt lat="43.0817" lon="-0.39412">
        <ele>935.5</ele>
        <time>2014-10-02T10:53:23Z</time>
      </trkpt>
      <trkpt lat="43.08186" lon="-0.39394">
        <ele>932.135498</ele>
        <time>2014-10-02T10:53:42Z</time>
      </trkpt>
      <trkpt lat="43.08191" lon="-0.39385">
        <ele>929.251465</ele>
        <time>2014-10-02T10:53:50Z</time>
      </trkpt>
      <trkpt lat="43.08193" lon="-0.39383">
        <ele>929.251465</ele>
        <time>2014-10-02T10:53:53Z</time>
      </trkpt>
      <trkpt lat="43.08203" lon="-0.3936">
        <ele>926.367676</ele>
        <time>2014-10-02T10:54:08Z</time>
      </trkpt>
      <trkpt lat="43.0821" lon="-0.39346">
        <ele>924.925781</ele>
        <time>2014-10-02T10:54:24Z</time>
      </trkpt>
      <trkpt lat="43.08204" lon="-0.39373">
        <ele>922.522217</ele>
        <time>2014-10-02T10:54:43Z</time>
      </trkpt>
      <trkpt lat="43.08199" lon="-0.39389">
        <ele>921.560791</ele>
        <time>2014-10-02T10:54:55Z</time>
      </trkpt>
      <trkpt lat="43.08199" lon="-0.39393">
        <ele>921.560791</ele>
        <time>2014-10-02T10:54:57Z</time>
      </trkpt>
      <trkpt lat="43.08198" lon="-0.39413">
        <ele>919.157715</ele>
        <time>2014-10-02T10:55:10Z</time>
      </trkpt>
      <trkpt lat="43.08195" lon="-0.39434">
        <ele>917.235107</ele>
        <time>2014-10-02T10:55:23Z</time>
      </trkpt>
      <trkpt lat="43.08194" lon="-0.39453">
        <ele>914.831787</ele>
        <time>2014-10-02T10:55:36Z</time>
      </trkpt>
      <trkpt lat="43.08189" lon="-0.39471">
        <ele>911.467285</ele>
        <time>2014-10-02T10:55:48Z</time>
      </trkpt>
      <trkpt lat="43.08186" lon="-0.39486">
        <ele>910.505859</ele>
        <time>2014-10-02T10:55:58Z</time>
      </trkpt>
      <trkpt lat="43.0818" lon="-0.39502">
        <ele>908.102783</ele>
        <time>2014-10-02T10:56:10Z</time>
      </trkpt>
      <trkpt lat="43.08177" lon="-0.39513">
        <ele>907.141113</ele>
        <time>2014-10-02T10:56:17Z</time>
      </trkpt>
      <trkpt lat="43.08176" lon="-0.39518">
        <ele>907.621826</ele>
        <time>2014-10-02T10:56:20Z</time>
      </trkpt>
      <trkpt lat="43.08173" lon="-0.39537">
        <ele>904.257324</ele>
        <time>2014-10-02T10:56:31Z</time>
      </trkpt>
      <trkpt lat="43.08179" lon="-0.39528">
        <ele>900.412109</ele>
        <time>2014-10-02T10:56:43Z</time>
      </trkpt>
      <trkpt lat="43.0819" lon="-0.39517">
        <ele>898.489258</ele>
        <time>2014-10-02T10:56:57Z</time>
      </trkpt>
      <trkpt lat="43.08193" lon="-0.39518">
        <ele>896.086182</ele>
        <time>2014-10-02T10:57:03Z</time>
      </trkpt>
      <trkpt lat="43.08186" lon="-0.3954">
        <ele>892.72168</ele>
        <time>2014-10-02T10:57:19Z</time>
      </trkpt>
      <trkpt lat="43.08184" lon="-0.39548">
        <ele>890.318115</ele>
        <time>2014-10-02T10:57:26Z</time>
      </trkpt>
      <trkpt lat="43.08172" lon="-0.39565">
        <ele>889.837402</ele>
        <time>2014-10-02T10:57:38Z</time>
      </trkpt>
      <trkpt lat="43.0817" lon="-0.39586">
        <ele>887.914795</ele>
        <time>2014-10-02T10:57:50Z</time>
      </trkpt>
      <trkpt lat="43.08169" lon="-0.3959">
        <ele>887.914795</ele>
        <time>2014-10-02T10:57:52Z</time>
      </trkpt>
      <trkpt lat="43.08165" lon="-0.39612">
        <ele>885.992188</ele>
        <time>2014-10-02T10:58:05Z</time>
      </trkpt>
      <trkpt lat="43.08161" lon="-0.39627">
        <ele>883.588867</ele>
        <time>2014-10-02T10:58:14Z</time>
      </trkpt>
      <trkpt lat="43.0816" lon="-0.39639">
        <ele>882.146973</ele>
        <time>2014-10-02T10:58:25Z</time>
      </trkpt>
      <trkpt lat="43.08145" lon="-0.39654">
        <ele>879.743652</ele>
        <time>2014-10-02T10:58:39Z</time>
      </trkpt>
      <trkpt lat="43.08156" lon="-0.39674">
        <ele>878.301758</ele>
        <time>2014-10-02T10:58:50Z</time>
      </trkpt>
      <trkpt lat="43.08159" lon="-0.39677">
        <ele>877.821045</ele>
        <time>2014-10-02T10:58:51Z</time>
      </trkpt>
      <trkpt lat="43.08168" lon="-0.39696">
        <ele>875.41748</ele>
        <time>2014-10-02T10:59:02Z</time>
      </trkpt>
      <trkpt lat="43.08169" lon="-0.39715">
        <ele>876.37915</ele>
        <time>2014-10-02T10:59:13Z</time>
      </trkpt>
      <trkpt lat="43.08167" lon="-0.39722">
        <ele>877.821045</ele>
        <time>2014-10-02T10:59:17Z</time>
      </trkpt>
      <trkpt lat="43.08164" lon="-0.39741">
        <ele>879.262939</ele>
        <time>2014-10-02T10:59:29Z</time>
      </trkpt>
      <trkpt lat="43.08164" lon="-0.3975">
        <ele>878.782471</ele>
        <time>2014-10-02T10:59:35Z</time>
      </trkpt>
      <trkpt lat="43.08172" lon="-0.39768">
        <ele>877.340576</ele>
        <time>2014-10-02T10:59:47Z</time>
      </trkpt>
      <trkpt lat="43.08174" lon="-0.39772">
        <ele>877.340576</ele>
        <time>2014-10-02T10:59:49Z</time>
      </trkpt>
      <trkpt lat="43.08173" lon="-0.39776">
        <ele>878.301758</ele>
        <time>2014-10-02T10:59:51Z</time>
      </trkpt>
      <trkpt lat="43.08172" lon="-0.39784">
        <ele>877.821045</ele>
        <time>2014-10-02T10:59:55Z</time>
      </trkpt>
      <trkpt lat="43.08174" lon="-0.39813">
        <ele>876.859863</ele>
        <time>2014-10-02T11:00:12Z</time>
      </trkpt>
      <trkpt lat="43.0818" lon="-0.39834">
        <ele>874.456299</ele>
        <time>2014-10-02T11:00:30Z</time>
      </trkpt>
      <trkpt lat="43.08182" lon="-0.39859">
        <ele>872.052979</ele>
        <time>2014-10-02T11:00:45Z</time>
      </trkpt>
      <trkpt lat="43.08183" lon="-0.39876">
        <ele>870.130371</ele>
        <time>2014-10-02T11:00:56Z</time>
      </trkpt>
      <trkpt lat="43.08183" lon="-0.39883">
        <ele>870.130371</ele>
        <time>2014-10-02T11:01:00Z</time>
      </trkpt>
      <trkpt lat="43.08182" lon="-0.39897">
        <ele>869.169189</ele>
        <time>2014-10-02T11:01:10Z</time>
      </trkpt>
      <trkpt lat="43.08179" lon="-0.3992">
        <ele>868.688477</ele>
        <time>2014-10-02T11:01:25Z</time>
      </trkpt>
      <trkpt lat="43.0818" lon="-0.39932">
        <ele>867.246582</ele>
        <time>2014-10-02T11:01:33Z</time>
      </trkpt>
      <trkpt lat="43.08181" lon="-0.3994">
        <ele>866.765869</ele>
        <time>2014-10-02T11:01:38Z</time>
      </trkpt>
      <trkpt lat="43.0818" lon="-0.39947">
        <ele>865.804688</ele>
        <time>2014-10-02T11:01:43Z</time>
      </trkpt>
      <trkpt lat="43.08174" lon="-0.39967">
        <ele>865.323975</ele>
        <time>2014-10-02T11:01:57Z</time>
      </trkpt>
      <trkpt lat="43.08175" lon="-0.39988">
        <ele>865.323975</ele>
        <time>2014-10-02T11:02:10Z</time>
      </trkpt>
      <trkpt lat="43.0817" lon="-0.40003">
        <ele>863.881836</ele>
        <time>2014-10-02T11:02:20Z</time>
      </trkpt>
      <trkpt lat="43.08163" lon="-0.40022">
        <ele>863.401367</ele>
        <time>2014-10-02T11:02:32Z</time>
      </trkpt>
      <trkpt lat="43.08162" lon="-0.40048">
        <ele>862.439941</ele>
        <time>2014-10-02T11:02:46Z</time>
      </trkpt>
      <trkpt lat="43.08163" lon="-0.40059">
        <ele>860.517334</ele>
        <time>2014-10-02T11:02:53Z</time>
      </trkpt>
      <trkpt lat="43.08163" lon="-0.40084">
        <ele>859.075195</ele>
        <time>2014-10-02T11:03:08Z</time>
      </trkpt>
      <trkpt lat="43.08167" lon="-0.40102">
        <ele>856.671875</ele>
        <time>2014-10-02T11:03:20Z</time>
      </trkpt>
      <trkpt lat="43.08166" lon="-0.40108">
        <ele>856.671875</ele>
        <time>2014-10-02T11:03:23Z</time>
      </trkpt>
      <trkpt lat="43.08171" lon="-0.40143">
        <ele>854.268799</ele>
        <time>2014-10-02T11:03:44Z</time>
      </trkpt>
      <trkpt lat="43.08175" lon="-0.40162">
        <ele>850.904053</ele>
        <time>2014-10-02T11:03:58Z</time>
      </trkpt>
      <trkpt lat="43.08173" lon="-0.40173">
        <ele>849.942871</ele>
        <time>2014-10-02T11:04:13Z</time>
      </trkpt>
      <trkpt lat="43.08174" lon="-0.40173">
        <ele>849.462158</ele>
        <time>2014-10-02T11:05:03Z</time>
      </trkpt>
      <trkpt lat="43.08172" lon="-0.40173">
        <ele>849.942871</ele>
        <time>2014-10-02T11:05:45Z</time>
      </trkpt>
      <trkpt lat="43.08169" lon="-0.40174">
        <ele>850.423584</ele>
        <time>2014-10-02T11:06:11Z</time>
      </trkpt>
      <trkpt lat="43.08172" lon="-0.40174">
        <ele>849.942871</ele>
        <time>2014-10-02T11:06:23Z</time>
      </trkpt>
      <trkpt lat="43.0818" lon="-0.4015">
        <ele>847.058838</ele>
        <time>2014-10-02T11:06:40Z</time>
      </trkpt>
      <trkpt lat="43.08187" lon="-0.40159">
        <ele>844.655518</ele>
        <time>2014-10-02T11:06:51Z</time>
      </trkpt>
      <trkpt lat="43.08193" lon="-0.40171">
        <ele>841.771484</ele>
        <time>2014-10-02T11:07:02Z</time>
      </trkpt>
      <trkpt lat="43.08205" lon="-0.40197">
        <ele>838.406982</ele>
        <time>2014-10-02T11:07:23Z</time>
      </trkpt>
      <trkpt lat="43.08209" lon="-0.40214">
        <ele>836.484375</ele>
        <time>2014-10-02T11:07:36Z</time>
      </trkpt>
      <trkpt lat="43.08216" lon="-0.40213">
        <ele>832.63916</ele>
        <time>2014-10-02T11:07:45Z</time>
      </trkpt>
      <trkpt lat="43.08218" lon="-0.40216">
        <ele>831.197266</ele>
        <time>2014-10-02T11:07:50Z</time>
      </trkpt>
      <trkpt lat="43.08222" lon="-0.40232">
        <ele>828.793945</ele>
        <time>2014-10-02T11:08:02Z</time>
      </trkpt>
      <trkpt lat="43.08222" lon="-0.4024">
        <ele>826.390381</ele>
        <time>2014-10-02T11:08:09Z</time>
      </trkpt>
      <trkpt lat="43.0823" lon="-0.4024">
        <ele>823.025879</ele>
        <time>2014-10-02T11:08:21Z</time>
      </trkpt>
      <trkpt lat="43.08236" lon="-0.4024">
        <ele>821.58374</ele>
        <time>2014-10-02T11:08:27Z</time>
      </trkpt>
      <trkpt lat="43.08245" lon="-0.40241">
        <ele>819.180664</ele>
        <time>2014-10-02T11:08:41Z</time>
      </trkpt>
      <trkpt lat="43.08247" lon="-0.40256">
        <ele>817.738525</ele>
        <time>2014-10-02T11:09:05Z</time>
      </trkpt>
      <trkpt lat="43.08246" lon="-0.4026">
        <ele>817.258057</ele>
        <time>2014-10-02T11:09:09Z</time>
      </trkpt>
      <trkpt lat="43.08244" lon="-0.4027">
        <ele>814.854736</ele>
        <time>2014-10-02T11:09:16Z</time>
      </trkpt>
      <trkpt lat="43.08249" lon="-0.40276">
        <ele>811.970703</ele>
        <time>2014-10-02T11:09:22Z</time>
      </trkpt>
      <trkpt lat="43.08245" lon="-0.40293">
        <ele>809.567383</ele>
        <time>2014-10-02T11:09:36Z</time>
      </trkpt>
      <trkpt lat="43.0824" lon="-0.40301">
        <ele>805.241455</ele>
        <time>2014-10-02T11:09:46Z</time>
      </trkpt>
      <trkpt lat="43.0824" lon="-0.40302">
        <ele>804.760742</ele>
        <time>2014-10-02T11:09:47Z</time>
      </trkpt>
      <trkpt lat="43.0823" lon="-0.40312">
        <ele>802.838135</ele>
        <time>2014-10-02T11:09:58Z</time>
      </trkpt>
      <trkpt lat="43.08221" lon="-0.40322">
        <ele>800.435059</ele>
        <time>2014-10-02T11:10:11Z</time>
      </trkpt>
      <trkpt lat="43.0822" lon="-0.40322">
        <ele>799.954346</ele>
        <time>2014-10-02T11:10:12Z</time>
      </trkpt>
      <trkpt lat="43.08208" lon="-0.40334">
        <ele>796.589844</ele>
        <time>2014-10-02T11:10:25Z</time>
      </trkpt>
      <trkpt lat="43.08195" lon="-0.40344">
        <ele>793.705566</ele>
        <time>2014-10-02T11:10:40Z</time>
      </trkpt>
      <trkpt lat="43.08185" lon="-0.4035">
        <ele>790.821533</ele>
        <time>2014-10-02T11:10:55Z</time>
      </trkpt>
      <trkpt lat="43.08169" lon="-0.40353">
        <ele>789.379639</ele>
        <time>2014-10-02T11:11:10Z</time>
      </trkpt>
      <trkpt lat="43.08171" lon="-0.40359">
        <ele>786.976318</ele>
        <time>2014-10-02T11:11:19Z</time>
      </trkpt>
      <trkpt lat="43.08179" lon="-0.40363">
        <ele>784.092529</ele>
        <time>2014-10-02T11:11:28Z</time>
      </trkpt>
      <trkpt lat="43.08185" lon="-0.40376">
        <ele>780.247314</ele>
        <time>2014-10-02T11:11:41Z</time>
      </trkpt>
      <trkpt lat="43.08182" lon="-0.4038">
        <ele>777.84375</ele>
        <time>2014-10-02T11:11:54Z</time>
      </trkpt>
      <trkpt lat="43.08185" lon="-0.40382">
        <ele>777.84375</ele>
        <time>2014-10-02T11:11:57Z</time>
      </trkpt>
      <trkpt lat="43.08196" lon="-0.40392">
        <ele>773.998535</ele>
        <time>2014-10-02T11:12:13Z</time>
      </trkpt>
      <trkpt lat="43.08205" lon="-0.404">
        <ele>771.114746</ele>
        <time>2014-10-02T11:12:26Z</time>
      </trkpt>
      <trkpt lat="43.08215" lon="-0.40406">
        <ele>767.75</ele>
        <time>2014-10-02T11:12:38Z</time>
      </trkpt>
      <trkpt lat="43.08226" lon="-0.40413">
        <ele>764.385498</ele>
        <time>2014-10-02T11:12:53Z</time>
      </trkpt>
      <trkpt lat="43.08219" lon="-0.40418">
        <ele>762.943359</ele>
        <time>2014-10-02T11:13:02Z</time>
      </trkpt>
      <trkpt lat="43.08208" lon="-0.40421">
        <ele>760.540039</ele>
        <time>2014-10-02T11:13:16Z</time>
      </trkpt>
      <trkpt lat="43.08204" lon="-0.40427">
        <ele>758.136963</ele>
        <time>2014-10-02T11:13:28Z</time>
      </trkpt>
      <trkpt lat="43.08213" lon="-0.4043">
        <ele>754.772217</ele>
        <time>2014-10-02T11:13:37Z</time>
      </trkpt>
      <trkpt lat="43.08219" lon="-0.4044">
        <ele>751.407715</ele>
        <time>2014-10-02T11:13:51Z</time>
      </trkpt>
      <trkpt lat="43.08217" lon="-0.40442">
        <ele>751.407715</ele>
        <time>2014-10-02T11:13:53Z</time>
      </trkpt>
      <trkpt lat="43.08202" lon="-0.40447">
        <ele>748.523682</ele>
        <time>2014-10-02T11:14:06Z</time>
      </trkpt>
      <trkpt lat="43.08192" lon="-0.40448">
        <ele>747.562256</ele>
        <time>2014-10-02T11:14:17Z</time>
      </trkpt>
      <trkpt lat="43.0819" lon="-0.40447">
        <ele>747.081543</ele>
        <time>2014-10-02T11:14:21Z</time>
      </trkpt>
      <trkpt lat="43.08196" lon="-0.40453">
        <ele>745.158936</ele>
        <time>2014-10-02T11:14:32Z</time>
      </trkpt>
      <trkpt lat="43.08201" lon="-0.40468">
        <ele>742.275146</ele>
        <time>2014-10-02T11:14:46Z</time>
      </trkpt>
      <trkpt lat="43.08206" lon="-0.4047">
        <ele>740.352539</ele>
        <time>2014-10-02T11:14:51Z</time>
      </trkpt>
      <trkpt lat="43.08207" lon="-0.40472">
        <ele>739.391113</ele>
        <time>2014-10-02T11:14:53Z</time>
      </trkpt>
      <trkpt lat="43.0821" lon="-0.4048">
        <ele>737.468506</ele>
        <time>2014-10-02T11:15:06Z</time>
      </trkpt>
      <trkpt lat="43.08206" lon="-0.40481">
        <ele>735.545898</ele>
        <time>2014-10-02T11:15:11Z</time>
      </trkpt>
    </trkseg>
  </trk>
  <trk>
    <name><![CDATA[ACTIVE LOG 002]]></name>
    <trkseg>
      <trkpt lat="43.08643" lon="-0.41591">
        <ele>439.459717</ele>
        <time>2014-10-02T11:37:30Z</time>
      </trkpt>
    </trkseg>
  </trk>
  <trk>
    <name><![CDATA[ACTIVE LOG 003]]></name>
    <trkseg>
      <trkpt lat="43.08634" lon="-0.41626">
        <ele>426.962769</ele>
        <time>2014-10-02T11:37:31Z</time>
      </trkpt>
      <trkpt lat="43.08645" lon="-0.41635">
        <ele>426.001343</ele>
        <time>2014-10-02T11:37:33Z</time>
      </trkpt>
      <trkpt lat="43.08646" lon="-0.41637">
        <ele>425.520752</ele>
        <time>2014-10-02T11:37:34Z</time>
      </trkpt>
      <trkpt lat="43.08647" lon="-0.41645">
        <ele>425.040161</ele>
        <time>2014-10-02T11:37:38Z</time>
      </trkpt>
      <trkpt lat="43.08648" lon="-0.41663">
        <ele>425.040161</ele>
        <time>2014-10-02T11:37:48Z</time>
      </trkpt>
      <trkpt lat="43.08651" lon="-0.41691">
        <ele>424.559448</ele>
        <time>2014-10-02T11:38:03Z</time>
      </trkpt>
      <trkpt lat="43.08652" lon="-0.4173">
        <ele>422.636719</ele>
        <time>2014-10-02T11:38:23Z</time>
      </trkpt>
      <trkpt lat="43.0865" lon="-0.41766">
        <ele>421.675415</ele>
        <time>2014-10-02T11:38:40Z</time>
      </trkpt>
      <trkpt lat="43.08651" lon="-0.418">
        <ele>421.194824</ele>
        <time>2014-10-02T11:38:57Z</time>
      </trkpt>
      <trkpt lat="43.0865" lon="-0.41827">
        <ele>420.233398</ele>
        <time>2014-10-02T11:39:11Z</time>
      </trkpt>
      <trkpt lat="43.08648" lon="-0.41851">
        <ele>419.752808</ele>
        <time>2014-10-02T11:39:27Z</time>
      </trkpt>
    </trkseg>
  </trk>
</gpx>